<?xml version="1.0" encoding="UTF-8"?>
<gpx version="1.1" creator="2bulu-scraper" xmlns="http://www.topografix.com/GPX/1/1">
  <metadata><name>泸州纳溪区</name><desc>source: 2bulu.com trackId=84785146; exported 2026-09-01T14:52:32.401Z</desc>
    <bounds minlat="28.7258539" minlon="105.4143771" maxlat="28.7415639" maxlon="105.4308377"/>
    <link href="https://www.2bulu.com/track/t-uWYJK5%252FkSWbp%252FR2KBg5Tzw%253D%253D.htm"><text>2bulu 源页面</text></link>
  </metadata>
  <wpt lat="28.7368401" lon="105.4263946"><ele>322</ele><name>
        </name></wpt>
  <wpt lat="28.7356601" lon="105.4238112"><ele>396</ele><name>
        </name></wpt>
  <wpt lat="28.7355827" lon="105.4237483"><ele>394</ele><name>
        </name></wpt>
  <wpt lat="28.7355827" lon="105.4237483"><ele>394</ele><name>
        </name></wpt>
  <wpt lat="28.7350412" lon="105.4237406"><ele>420</ele><name>
        </name></wpt>
  <wpt lat="28.7350412" lon="105.4237406"><ele>420</ele><name>
        </name></wpt>
  <wpt lat="28.734709" lon="105.4228844"><ele>431</ele><name>
        </name></wpt>
  <wpt lat="28.734709" lon="105.4228844"><ele>431</ele><name>
        </name></wpt>
  <wpt lat="28.7346173" lon="105.4228177"><ele>430</ele><name>
        </name></wpt>
  <wpt lat="28.7345885" lon="105.4227202"><ele>430</ele><name>
        </name></wpt>
  <wpt lat="28.7307914" lon="105.4226646"><ele>404</ele><name>
        </name></wpt>
  <wpt lat="28.7308028" lon="105.4224595"><ele>411</ele><name>
        </name></wpt>
  <wpt lat="28.7293501" lon="105.422499"><ele>420</ele><name>
        </name></wpt>
  <wpt lat="28.7286641" lon="105.4233226"><ele>408</ele><name>
        </name></wpt>
  <wpt lat="28.7261714" lon="105.4195358"><ele>389</ele><name>
        </name></wpt>
  <wpt lat="28.7261714" lon="105.4195358"><ele>389</ele><name>
        </name></wpt>
  <wpt lat="28.7261714" lon="105.4195358"><ele>389</ele><name>
        </name></wpt>
  <wpt lat="28.7272225" lon="105.4187469"><ele>343</ele><name>
        </name></wpt>
  <trk><name>泸州纳溪区</name>
      <trkseg>
        <trkpt lat="28.7381704" lon="105.4305073"><ele>249.32</ele><time>2026-05-24T18:33:31.000Z</time></trkpt>
        <trkpt lat="28.7381852" lon="105.4304039"><ele>249.32</ele><time>2026-05-24T18:34:15.000Z</time></trkpt>
        <trkpt lat="28.738211" lon="105.4303048"><ele>247.99</ele><time>2026-05-24T18:35:04.000Z</time></trkpt>
        <trkpt lat="28.7382552" lon="105.4302131"><ele>248.58</ele><time>2026-05-24T18:35:40.000Z</time></trkpt>
        <trkpt lat="28.738223" lon="105.4301278"><ele>251.02</ele><time>2026-05-24T18:36:26.000Z</time></trkpt>
        <trkpt lat="28.7382942" lon="105.4301577"><ele>252.69</ele><time>2026-05-24T18:37:44.000Z</time></trkpt>
        <trkpt lat="28.7383538" lon="105.4300802"><ele>254.78</ele><time>2026-05-24T18:38:23.000Z</time></trkpt>
        <trkpt lat="28.7384205" lon="105.4301129"><ele>255.04</ele><time>2026-05-24T18:38:39.000Z</time></trkpt>
        <trkpt lat="28.738316" lon="105.4301577"><ele>256</ele><time>2026-05-24T18:40:55.000Z</time></trkpt>
        <trkpt lat="28.7383021" lon="105.4302695"><ele>257.04</ele><time>2026-05-24T18:41:06.000Z</time></trkpt>
        <trkpt lat="28.738225" lon="105.4303193"><ele>257.09</ele><time>2026-05-24T18:41:28.000Z</time></trkpt>
        <trkpt lat="28.7381362" lon="105.4302906"><ele>254.88</ele><time>2026-05-24T18:41:42.000Z</time></trkpt>
        <trkpt lat="28.7380407" lon="105.4302624"><ele>252.77</ele><time>2026-05-24T18:41:57.000Z</time></trkpt>
        <trkpt lat="28.7380077" lon="105.4302445"><ele>248.82</ele><time>2026-05-24T18:42:03.000Z</time></trkpt>
        <trkpt lat="28.7380087" lon="105.4303564"><ele>246.79</ele><time>2026-05-24T18:42:27.000Z</time></trkpt>
        <trkpt lat="28.7379339" lon="105.4305388"><ele>245.05</ele><time>2026-05-24T18:42:35.000Z</time></trkpt>
        <trkpt lat="28.7377901" lon="105.4305637"><ele>242.24</ele><time>2026-05-24T18:42:39.000Z</time></trkpt>
        <trkpt lat="28.7376588" lon="105.4305832"><ele>240.84</ele><time>2026-05-24T18:42:41.000Z</time></trkpt>
        <trkpt lat="28.7375507" lon="105.4306067"><ele>239.64</ele><time>2026-05-24T18:42:43.000Z</time></trkpt>
        <trkpt lat="28.7374605" lon="105.4306576"><ele>239.16</ele><time>2026-05-24T18:42:45.000Z</time></trkpt>
        <trkpt lat="28.7373901" lon="105.4307354"><ele>238.94</ele><time>2026-05-24T18:42:47.000Z</time></trkpt>
        <trkpt lat="28.7373257" lon="105.4308121"><ele>239</ele><time>2026-05-24T18:42:49.000Z</time></trkpt>
        <trkpt lat="28.7371727" lon="105.4308342"><ele>239.39</ele><time>2026-05-24T18:42:53.000Z</time></trkpt>
        <trkpt lat="28.7370415" lon="105.4308321"><ele>240.33</ele><time>2026-05-24T18:42:55.000Z</time></trkpt>
        <trkpt lat="28.7369215" lon="105.4308327"><ele>241.46</ele><time>2026-05-24T18:42:57.000Z</time></trkpt>
        <trkpt lat="28.7368029" lon="105.4308357"><ele>242.75</ele><time>2026-05-24T18:42:59.000Z</time></trkpt>
        <trkpt lat="28.7366916" lon="105.4308314"><ele>244.05</ele><time>2026-05-24T18:43:01.000Z</time></trkpt>
        <trkpt lat="28.7365921" lon="105.4308248"><ele>244.99</ele><time>2026-05-24T18:43:03.000Z</time></trkpt>
        <trkpt lat="28.7364499" lon="105.4307892"><ele>245.63</ele><time>2026-05-24T18:43:07.000Z</time></trkpt>
        <trkpt lat="28.7363103" lon="105.4307025"><ele>246.14</ele><time>2026-05-24T18:43:11.000Z</time></trkpt>
        <trkpt lat="28.7361909" lon="105.4305566"><ele>246.12</ele><time>2026-05-24T18:43:15.000Z</time></trkpt>
        <trkpt lat="28.7361221" lon="105.4304452"><ele>245.6</ele><time>2026-05-24T18:43:17.000Z</time></trkpt>
        <trkpt lat="28.7360342" lon="105.4303169"><ele>245.16</ele><time>2026-05-24T18:43:21.000Z</time></trkpt>
        <trkpt lat="28.735978" lon="105.4302538"><ele>244.74</ele><time>2026-05-24T18:43:25.000Z</time></trkpt>
        <trkpt lat="28.7359119" lon="105.4301414"><ele>244.66</ele><time>2026-05-24T18:43:49.000Z</time></trkpt>
        <trkpt lat="28.7358836" lon="105.4300156"><ele>245.84</ele><time>2026-05-24T18:43:55.000Z</time></trkpt>
        <trkpt lat="28.7358873" lon="105.4298903"><ele>247.51</ele><time>2026-05-24T18:44:01.000Z</time></trkpt>
        <trkpt lat="28.7359326" lon="105.4297492"><ele>249.52</ele><time>2026-05-24T18:44:07.000Z</time></trkpt>
        <trkpt lat="28.7359688" lon="105.4296118"><ele>251.94</ele><time>2026-05-24T18:44:13.000Z</time></trkpt>
        <trkpt lat="28.7359759" lon="105.4294927"><ele>254.68</ele><time>2026-05-24T18:44:21.000Z</time></trkpt>
        <trkpt lat="28.735951" lon="105.4293571"><ele>257.29</ele><time>2026-05-24T18:44:27.000Z</time></trkpt>
        <trkpt lat="28.7358991" lon="105.4292539"><ele>259.58</ele><time>2026-05-24T18:44:31.000Z</time></trkpt>
        <trkpt lat="28.7358197" lon="105.4291272"><ele>261.97</ele><time>2026-05-24T18:44:37.000Z</time></trkpt>
        <trkpt lat="28.7357893" lon="105.4289852"><ele>264.49</ele><time>2026-05-24T18:44:41.000Z</time></trkpt>
        <trkpt lat="28.7357918" lon="105.428824"><ele>266.89</ele><time>2026-05-24T18:44:45.000Z</time></trkpt>
        <trkpt lat="28.7358042" lon="105.4286849"><ele>268.8</ele><time>2026-05-24T18:44:47.000Z</time></trkpt>
        <trkpt lat="28.7358272" lon="105.4285467"><ele>269.91</ele><time>2026-05-24T18:44:49.000Z</time></trkpt>
        <trkpt lat="28.7358626" lon="105.4284279"><ele>270.6</ele><time>2026-05-24T18:44:51.000Z</time></trkpt>
        <trkpt lat="28.7359074" lon="105.4283285"><ele>271.26</ele><time>2026-05-24T18:44:53.000Z</time></trkpt>
        <trkpt lat="28.7359431" lon="105.4282296"><ele>271.89</ele><time>2026-05-24T18:44:55.000Z</time></trkpt>
        <trkpt lat="28.7359767" lon="105.4280659"><ele>272.36</ele><time>2026-05-24T18:44:59.000Z</time></trkpt>
        <trkpt lat="28.7359944" lon="105.4279155"><ele>273.12</ele><time>2026-05-24T18:45:03.000Z</time></trkpt>
        <trkpt lat="28.7359693" lon="105.4277766"><ele>274.85</ele><time>2026-05-24T18:45:09.000Z</time></trkpt>
        <trkpt lat="28.7359117" lon="105.4276069"><ele>276.42</ele><time>2026-05-24T18:45:13.000Z</time></trkpt>
        <trkpt lat="28.7358326" lon="105.4274108"><ele>277.78</ele><time>2026-05-24T18:45:17.000Z</time></trkpt>
        <trkpt lat="28.7357531" lon="105.4272938"><ele>279.08</ele><time>2026-05-24T18:45:19.000Z</time></trkpt>
        <trkpt lat="28.7356658" lon="105.4272362"><ele>280.41</ele><time>2026-05-24T18:45:21.000Z</time></trkpt>
        <trkpt lat="28.7355736" lon="105.4272077"><ele>281.85</ele><time>2026-05-24T18:45:23.000Z</time></trkpt>
        <trkpt lat="28.7354964" lon="105.4271608"><ele>283.26</ele><time>2026-05-24T18:45:25.000Z</time></trkpt>
        <trkpt lat="28.7354329" lon="105.4270823"><ele>284.33</ele><time>2026-05-24T18:45:27.000Z</time></trkpt>
        <trkpt lat="28.7353727" lon="105.426992"><ele>285.08</ele><time>2026-05-24T18:45:29.000Z</time></trkpt>
        <trkpt lat="28.7353615" lon="105.4268375"><ele>285.7</ele><time>2026-05-24T18:45:33.000Z</time></trkpt>
        <trkpt lat="28.7353873" lon="105.4267103"><ele>286.27</ele><time>2026-05-24T18:45:35.000Z</time></trkpt>
        <trkpt lat="28.735386" lon="105.4265957"><ele>286.83</ele><time>2026-05-24T18:45:37.000Z</time></trkpt>
        <trkpt lat="28.7353342" lon="105.4264665"><ele>287.87</ele><time>2026-05-24T18:45:41.000Z</time></trkpt>
        <trkpt lat="28.7352979" lon="105.4263497"><ele>289.88</ele><time>2026-05-24T18:45:45.000Z</time></trkpt>
        <trkpt lat="28.7353898" lon="105.426362"><ele>291.95</ele><time>2026-05-24T18:45:51.000Z</time></trkpt>
        <trkpt lat="28.7355153" lon="105.4264507"><ele>294.23</ele><time>2026-05-24T18:45:55.000Z</time></trkpt>
        <trkpt lat="28.7356511" lon="105.4265718"><ele>296.38</ele><time>2026-05-24T18:45:59.000Z</time></trkpt>
        <trkpt lat="28.7357677" lon="105.4266897"><ele>298.78</ele><time>2026-05-24T18:46:03.000Z</time></trkpt>
        <trkpt lat="28.7358888" lon="105.4267573"><ele>301.21</ele><time>2026-05-24T18:46:07.000Z</time></trkpt>
        <trkpt lat="28.7360246" lon="105.426797"><ele>303.63</ele><time>2026-05-24T18:46:11.000Z</time></trkpt>
        <trkpt lat="28.7361798" lon="105.4268268"><ele>305.9</ele><time>2026-05-24T18:46:15.000Z</time></trkpt>
        <trkpt lat="28.7363317" lon="105.4268519"><ele>308.33</ele><time>2026-05-24T18:46:19.000Z</time></trkpt>
        <trkpt lat="28.736477" lon="105.4268748"><ele>310.83</ele><time>2026-05-24T18:46:23.000Z</time></trkpt>
        <trkpt lat="28.7366154" lon="105.4268841"><ele>313.27</ele><time>2026-05-24T18:46:27.000Z</time></trkpt>
        <trkpt lat="28.7367153" lon="105.4268311"><ele>315.7</ele><time>2026-05-24T18:46:31.000Z</time></trkpt>
        <trkpt lat="28.7367656" lon="105.4268912"><ele>317.6</ele><time>2026-05-24T18:47:33.000Z</time></trkpt>
        <trkpt lat="28.7367654" lon="105.426994"><ele>318.62</ele><time>2026-05-24T18:48:29.000Z</time></trkpt>
        <trkpt lat="28.7368146" lon="105.426942"><ele>318.1</ele><time>2026-05-24T18:49:09.000Z</time></trkpt>
        <trkpt lat="28.7368923" lon="105.4269578"><ele>318.12</ele><time>2026-05-24T18:49:21.000Z</time></trkpt>
        <trkpt lat="28.7369685" lon="105.4270119"><ele>317.18</ele><time>2026-05-24T18:49:33.000Z</time></trkpt>
        <trkpt lat="28.7369402" lon="105.4269714"><ele>316.38</ele><time>2026-05-24T18:50:21.000Z</time></trkpt>
        <trkpt lat="28.7368579" lon="105.4269095"><ele>316.35</ele><time>2026-05-24T18:50:31.000Z</time></trkpt>
        <trkpt lat="28.7367535" lon="105.4268588"><ele>316.73</ele><time>2026-05-24T18:50:39.000Z</time></trkpt>
        <trkpt lat="28.7367291" lon="105.42676"><ele>317.7</ele><time>2026-05-24T18:50:51.000Z</time></trkpt>
        <trkpt lat="28.7366673" lon="105.4266665"><ele>317.9</ele><time>2026-05-24T18:51:08.000Z</time></trkpt>
        <trkpt lat="28.7365714" lon="105.4266287"><ele>318.43</ele><time>2026-05-24T18:51:18.000Z</time></trkpt>
        <trkpt lat="28.7365293" lon="105.4265486"><ele>317.65</ele><time>2026-05-24T18:52:00.000Z</time></trkpt>
        <trkpt lat="28.7365417" lon="105.4266054"><ele>317.73</ele><time>2026-05-24T18:52:48.000Z</time></trkpt>
        <trkpt lat="28.736616" lon="105.426643"><ele>318.31</ele><time>2026-05-24T18:52:58.000Z</time></trkpt>
        <trkpt lat="28.7367146" lon="105.4266622"><ele>318.49</ele><time>2026-05-24T18:53:16.000Z</time></trkpt>
        <trkpt lat="28.7367797" lon="105.4265851"><ele>318.4</ele><time>2026-05-24T18:53:36.000Z</time></trkpt>
        <trkpt lat="28.7368443" lon="105.4264977"><ele>318.67</ele><time>2026-05-24T18:53:46.000Z</time></trkpt>
        <trkpt lat="28.7368401" lon="105.4263946"><ele>319.24</ele><time>2026-05-24T18:54:03.000Z</time></trkpt>
        <trkpt lat="28.7367577" lon="105.4263576"><ele>320.23</ele><time>2026-05-24T18:54:43.000Z</time></trkpt>
        <trkpt lat="28.7366913" lon="105.4262852"><ele>321.94</ele><time>2026-05-24T18:55:22.000Z</time></trkpt>
        <trkpt lat="28.7367365" lon="105.4262952"><ele>322.92</ele><time>2026-05-24T18:56:18.000Z</time></trkpt>
        <trkpt lat="28.7368572" lon="105.4262813"><ele>322.53</ele><time>2026-05-24T18:57:34.000Z</time></trkpt>
        <trkpt lat="28.736818" lon="105.4263839"><ele>321.97</ele><time>2026-05-24T18:58:02.000Z</time></trkpt>
        <trkpt lat="28.7368878" lon="105.4263734"><ele>322.58</ele><time>2026-05-24T18:58:14.000Z</time></trkpt>
        <trkpt lat="28.7369772" lon="105.4263541"><ele>321.96</ele><time>2026-05-24T18:58:24.000Z</time></trkpt>
        <trkpt lat="28.7370693" lon="105.4263808"><ele>322.71</ele><time>2026-05-24T18:58:34.000Z</time></trkpt>
        <trkpt lat="28.7371109" lon="105.4263964"><ele>323.64</ele><time>2026-05-24T18:58:38.000Z</time></trkpt>
        <trkpt lat="28.7371097" lon="105.426479"><ele>324.47</ele><time>2026-05-24T18:59:00.000Z</time></trkpt>
        <trkpt lat="28.7371063" lon="105.4265111"><ele>324.39</ele><time>2026-05-24T18:59:02.000Z</time></trkpt>
        <trkpt lat="28.7371566" lon="105.4265704"><ele>324.49</ele><time>2026-05-24T18:59:44.000Z</time></trkpt>
        <trkpt lat="28.7371245" lon="105.4266431"><ele>324.65</ele><time>2026-05-24T19:00:04.000Z</time></trkpt>
        <trkpt lat="28.7371409" lon="105.4267451"><ele>324.24</ele><time>2026-05-24T19:00:14.000Z</time></trkpt>
        <trkpt lat="28.7372106" lon="105.426803"><ele>324.04</ele><time>2026-05-24T19:00:28.000Z</time></trkpt>
        <trkpt lat="28.7372627" lon="105.4267346"><ele>324.1</ele><time>2026-05-24T19:00:40.000Z</time></trkpt>
        <trkpt lat="28.7373228" lon="105.4267605"><ele>324.63</ele><time>2026-05-24T19:01:04.000Z</time></trkpt>
        <trkpt lat="28.7373916" lon="105.4268194"><ele>325.01</ele><time>2026-05-24T19:01:30.000Z</time></trkpt>
        <trkpt lat="28.7374789" lon="105.4268216"><ele>325.26</ele><time>2026-05-24T19:01:46.000Z</time></trkpt>
        <trkpt lat="28.7375315" lon="105.4267447"><ele>325.62</ele><time>2026-05-24T19:02:19.000Z</time></trkpt>
        <trkpt lat="28.7375906" lon="105.4266428"><ele>326.72</ele><time>2026-05-24T19:02:43.000Z</time></trkpt>
        <trkpt lat="28.7376662" lon="105.4265606"><ele>328.04</ele><time>2026-05-24T19:02:55.000Z</time></trkpt>
        <trkpt lat="28.7377673" lon="105.4265075"><ele>329.2</ele><time>2026-05-24T19:03:05.000Z</time></trkpt>
        <trkpt lat="28.7378608" lon="105.4264498"><ele>330.37</ele><time>2026-05-24T19:03:15.000Z</time></trkpt>
        <trkpt lat="28.7379347" lon="105.4263822"><ele>331.68</ele><time>2026-05-24T19:03:27.000Z</time></trkpt>
        <trkpt lat="28.7380165" lon="105.4263163"><ele>332.58</ele><time>2026-05-24T19:03:49.000Z</time></trkpt>
        <trkpt lat="28.7380931" lon="105.4262475"><ele>333.51</ele><time>2026-05-24T19:04:07.000Z</time></trkpt>
        <trkpt lat="28.7381687" lon="105.4262754"><ele>334.61</ele><time>2026-05-24T19:04:45.000Z</time></trkpt>
        <trkpt lat="28.7380917" lon="105.4263733"><ele>334.84</ele><time>2026-05-24T19:09:02.000Z</time></trkpt>
        <trkpt lat="28.7380595" lon="105.426485"><ele>332.94</ele><time>2026-05-24T19:10:14.000Z</time></trkpt>
        <trkpt lat="28.7381498" lon="105.4264928"><ele>329.85</ele><time>2026-05-24T19:11:00.000Z</time></trkpt>
        <trkpt lat="28.7380792" lon="105.4265219"><ele>327.81</ele><time>2026-05-24T19:11:52.000Z</time></trkpt>
        <trkpt lat="28.7381264" lon="105.426518"><ele>326.65</ele><time>2026-05-24T19:12:49.000Z</time></trkpt>
        <trkpt lat="28.7381269" lon="105.4264368"><ele>325.63</ele><time>2026-05-24T19:13:11.000Z</time></trkpt>
        <trkpt lat="28.7381799" lon="105.4263487"><ele>326.6</ele><time>2026-05-24T19:13:33.000Z</time></trkpt>
        <trkpt lat="28.7381798" lon="105.426235"><ele>328.87</ele><time>2026-05-24T19:13:51.000Z</time></trkpt>
        <trkpt lat="28.7382024" lon="105.4261288"><ele>332.05</ele><time>2026-05-24T19:14:11.000Z</time></trkpt>
        <trkpt lat="28.7381737" lon="105.4260297"><ele>333.62</ele><time>2026-05-24T19:14:43.000Z</time></trkpt>
        <trkpt lat="28.7381869" lon="105.4260895"><ele>336.14</ele><time>2026-05-24T19:15:38.000Z</time></trkpt>
        <trkpt lat="28.73814" lon="105.4261746"><ele>336.44</ele><time>2026-05-24T19:15:50.000Z</time></trkpt>
        <trkpt lat="28.7380597" lon="105.4262603"><ele>336.29</ele><time>2026-05-24T19:16:00.000Z</time></trkpt>
        <trkpt lat="28.7379689" lon="105.4262726"><ele>335.34</ele><time>2026-05-24T19:16:18.000Z</time></trkpt>
        <trkpt lat="28.7379087" lon="105.4261935"><ele>335.73</ele><time>2026-05-24T19:16:38.000Z</time></trkpt>
        <trkpt lat="28.737933" lon="105.4262275"><ele>336.76</ele><time>2026-05-24T19:17:00.000Z</time></trkpt>
        <trkpt lat="28.7379461" lon="105.42632"><ele>336.75</ele><time>2026-05-24T19:17:18.000Z</time></trkpt>
        <trkpt lat="28.7378954" lon="105.4263933"><ele>335.57</ele><time>2026-05-24T19:17:28.000Z</time></trkpt>
        <trkpt lat="28.7378248" lon="105.4264832"><ele>335.1</ele><time>2026-05-24T19:17:38.000Z</time></trkpt>
        <trkpt lat="28.7377278" lon="105.4265354"><ele>334.32</ele><time>2026-05-24T19:17:48.000Z</time></trkpt>
        <trkpt lat="28.7376325" lon="105.4265911"><ele>333.5</ele><time>2026-05-24T19:17:56.000Z</time></trkpt>
        <trkpt lat="28.7375718" lon="105.4266735"><ele>332.67</ele><time>2026-05-24T19:18:08.000Z</time></trkpt>
        <trkpt lat="28.7374861" lon="105.4266952"><ele>331.48</ele><time>2026-05-24T19:18:18.000Z</time></trkpt>
        <trkpt lat="28.7373929" lon="105.426676"><ele>330.52</ele><time>2026-05-24T19:18:32.000Z</time></trkpt>
        <trkpt lat="28.7374085" lon="105.4265885"><ele>330.39</ele><time>2026-05-24T19:18:44.000Z</time></trkpt>
        <trkpt lat="28.7374606" lon="105.426475"><ele>330.72</ele><time>2026-05-24T19:18:54.000Z</time></trkpt>
        <trkpt lat="28.7374839" lon="105.4263539"><ele>331.91</ele><time>2026-05-24T19:19:04.000Z</time></trkpt>
        <trkpt lat="28.7374407" lon="105.42626"><ele>333.66</ele><time>2026-05-24T19:19:16.000Z</time></trkpt>
        <trkpt lat="28.7373738" lon="105.4261802"><ele>335.45</ele><time>2026-05-24T19:19:28.000Z</time></trkpt>
        <trkpt lat="28.7372999" lon="105.4261032"><ele>337.86</ele><time>2026-05-24T19:19:48.000Z</time></trkpt>
        <trkpt lat="28.7372187" lon="105.4260394"><ele>340.55</ele><time>2026-05-24T19:20:04.000Z</time></trkpt>
        <trkpt lat="28.737133" lon="105.4259874"><ele>343.1</ele><time>2026-05-24T19:20:16.000Z</time></trkpt>
        <trkpt lat="28.7370643" lon="105.4259181"><ele>345.42</ele><time>2026-05-24T19:20:26.000Z</time></trkpt>
        <trkpt lat="28.7370087" lon="105.4258329"><ele>347.51</ele><time>2026-05-24T19:20:40.000Z</time></trkpt>
        <trkpt lat="28.7369622" lon="105.425738"><ele>350.01</ele><time>2026-05-24T19:20:56.000Z</time></trkpt>
        <trkpt lat="28.7369243" lon="105.4256399"><ele>352.39</ele><time>2026-05-24T19:21:30.000Z</time></trkpt>
        <trkpt lat="28.7368728" lon="105.4255531"><ele>354.53</ele><time>2026-05-24T19:22:04.000Z</time></trkpt>
        <trkpt lat="28.7368115" lon="105.4254655"><ele>356.83</ele><time>2026-05-24T19:22:46.000Z</time></trkpt>
        <trkpt lat="28.7367423" lon="105.4253934"><ele>359.44</ele><time>2026-05-24T19:23:08.000Z</time></trkpt>
        <trkpt lat="28.7366716" lon="105.4253242"><ele>361.94</ele><time>2026-05-24T19:23:24.000Z</time></trkpt>
        <trkpt lat="28.7366205" lon="105.4252359"><ele>364.51</ele><time>2026-05-24T19:24:52.000Z</time></trkpt>
        <trkpt lat="28.7365623" lon="105.4251575"><ele>366.83</ele><time>2026-05-24T19:25:26.000Z</time></trkpt>
        <trkpt lat="28.7365043" lon="105.4250777"><ele>368.99</ele><time>2026-05-24T19:25:50.000Z</time></trkpt>
        <trkpt lat="28.7364736" lon="105.4249787"><ele>371.1</ele><time>2026-05-24T19:26:24.000Z</time></trkpt>
        <trkpt lat="28.7364332" lon="105.4248845"><ele>373.22</ele><time>2026-05-24T19:26:56.000Z</time></trkpt>
        <trkpt lat="28.7363878" lon="105.4247891"><ele>375.39</ele><time>2026-05-24T19:27:10.000Z</time></trkpt>
        <trkpt lat="28.736359" lon="105.4246853"><ele>377.7</ele><time>2026-05-24T19:27:26.000Z</time></trkpt>
        <trkpt lat="28.7363747" lon="105.4245843"><ele>379.8</ele><time>2026-05-24T19:27:52.000Z</time></trkpt>
        <trkpt lat="28.7364008" lon="105.4244791"><ele>382.42</ele><time>2026-05-24T19:28:22.000Z</time></trkpt>
        <trkpt lat="28.7364364" lon="105.4243803"><ele>385.04</ele><time>2026-05-24T19:28:36.000Z</time></trkpt>
        <trkpt lat="28.7364902" lon="105.4242885"><ele>387.61</ele><time>2026-05-24T19:29:04.000Z</time></trkpt>
        <trkpt lat="28.7364961" lon="105.4241869"><ele>389.61</ele><time>2026-05-24T19:29:44.000Z</time></trkpt>
        <trkpt lat="28.7364438" lon="105.4240883"><ele>390.9</ele><time>2026-05-24T19:29:54.000Z</time></trkpt>
        <trkpt lat="28.7363846" lon="105.4239947"><ele>392.1</ele><time>2026-05-24T19:30:02.000Z</time></trkpt>
        <trkpt lat="28.7362983" lon="105.4239509"><ele>393.39</ele><time>2026-05-24T19:30:10.000Z</time></trkpt>
        <trkpt lat="28.7362012" lon="105.4239513"><ele>394.28</ele><time>2026-05-24T19:30:20.000Z</time></trkpt>
        <trkpt lat="28.7361134" lon="105.4239623"><ele>394.89</ele><time>2026-05-24T19:30:36.000Z</time></trkpt>
        <trkpt lat="28.7360216" lon="105.4239633"><ele>395.19</ele><time>2026-05-24T19:31:06.000Z</time></trkpt>
        <trkpt lat="28.7359295" lon="105.423943"><ele>395.32</ele><time>2026-05-24T19:31:38.000Z</time></trkpt>
        <trkpt lat="28.7358414" lon="105.4239102"><ele>395.32</ele><time>2026-05-24T19:31:58.000Z</time></trkpt>
        <trkpt lat="28.7357487" lon="105.4238643"><ele>395.08</ele><time>2026-05-24T19:32:08.000Z</time></trkpt>
        <trkpt lat="28.7356601" lon="105.4238112"><ele>394.9</ele><time>2026-05-24T19:32:22.000Z</time></trkpt>
        <trkpt lat="28.7355827" lon="105.4237483"><ele>395.24</ele><time>2026-05-24T19:34:10.000Z</time></trkpt>
        <trkpt lat="28.7355022" lon="105.4236923"><ele>394.5</ele><time>2026-05-24T19:34:52.000Z</time></trkpt>
        <trkpt lat="28.7354204" lon="105.4236367"><ele>395.74</ele><time>2026-05-24T19:35:26.000Z</time></trkpt>
        <trkpt lat="28.7353458" lon="105.4235624"><ele>397.27</ele><time>2026-05-24T19:35:52.000Z</time></trkpt>
        <trkpt lat="28.7352613" lon="105.4235077"><ele>399.35</ele><time>2026-05-24T19:36:10.000Z</time></trkpt>
        <trkpt lat="28.7351631" lon="105.4234995"><ele>402.03</ele><time>2026-05-24T19:36:24.000Z</time></trkpt>
        <trkpt lat="28.7350692" lon="105.4235258"><ele>405.11</ele><time>2026-05-24T19:36:36.000Z</time></trkpt>
        <trkpt lat="28.7349777" lon="105.4235641"><ele>408.68</ele><time>2026-05-24T19:36:48.000Z</time></trkpt>
        <trkpt lat="28.7349003" lon="105.4235947"><ele>411.68</ele><time>2026-05-24T19:37:04.000Z</time></trkpt>
        <trkpt lat="28.7349835" lon="105.4236535"><ele>414.43</ele><time>2026-05-24T19:38:34.000Z</time></trkpt>
        <trkpt lat="28.7350412" lon="105.4237406"><ele>416.71</ele><time>2026-05-24T19:39:39.000Z</time></trkpt>
        <trkpt lat="28.7349959" lon="105.4236447"><ele>418.31</ele><time>2026-05-24T19:42:07.000Z</time></trkpt>
        <trkpt lat="28.7349025" lon="105.4236364"><ele>418.84</ele><time>2026-05-24T19:42:19.000Z</time></trkpt>
        <trkpt lat="28.7348086" lon="105.4236036"><ele>418.37</ele><time>2026-05-24T19:42:37.000Z</time></trkpt>
        <trkpt lat="28.7347821" lon="105.4235117"><ele>418.83</ele><time>2026-05-24T19:42:53.000Z</time></trkpt>
        <trkpt lat="28.734784" lon="105.4234017"><ele>419.91</ele><time>2026-05-24T19:43:17.000Z</time></trkpt>
        <trkpt lat="28.7347876" lon="105.4232834"><ele>423.21</ele><time>2026-05-24T19:43:43.000Z</time></trkpt>
        <trkpt lat="28.73481" lon="105.423171"><ele>426.69</ele><time>2026-05-24T19:44:23.000Z</time></trkpt>
        <trkpt lat="28.7348011" lon="105.4230642"><ele>430.52</ele><time>2026-05-24T19:44:39.000Z</time></trkpt>
        <trkpt lat="28.7347762" lon="105.4229619"><ele>432.01</ele><time>2026-05-24T19:45:09.000Z</time></trkpt>
        <trkpt lat="28.734709" lon="105.4228844"><ele>431.72</ele><time>2026-05-24T19:45:33.000Z</time></trkpt>
        <trkpt lat="28.7346173" lon="105.4228177"><ele>431.51</ele><time>2026-05-24T19:46:57.000Z</time></trkpt>
        <trkpt lat="28.7345885" lon="105.4227202"><ele>430.99</ele><time>2026-05-24T19:47:54.000Z</time></trkpt>
        <trkpt lat="28.7345395" lon="105.422632"><ele>430.55</ele><time>2026-05-24T19:48:40.000Z</time></trkpt>
        <trkpt lat="28.7345649" lon="105.4226853"><ele>429.24</ele><time>2026-05-24T19:49:18.000Z</time></trkpt>
        <trkpt lat="28.7346059" lon="105.4227976"><ele>428.29</ele><time>2026-05-24T19:49:52.000Z</time></trkpt>
        <trkpt lat="28.7346883" lon="105.4228921"><ele>428.42</ele><time>2026-05-24T19:50:12.000Z</time></trkpt>
        <trkpt lat="28.7347744" lon="105.4229718"><ele>428.45</ele><time>2026-05-24T19:50:23.000Z</time></trkpt>
        <trkpt lat="28.7348167" lon="105.4230701"><ele>429.13</ele><time>2026-05-24T19:50:39.000Z</time></trkpt>
        <trkpt lat="28.7348438" lon="105.4231802"><ele>429.7</ele><time>2026-05-24T19:50:51.000Z</time></trkpt>
        <trkpt lat="28.7348268" lon="105.4232876"><ele>430.86</ele><time>2026-05-24T19:51:33.000Z</time></trkpt>
        <trkpt lat="28.7348101" lon="105.4233205"><ele>431.85</ele><time>2026-05-24T19:51:39.000Z</time></trkpt>
        <trkpt lat="28.7348207" lon="105.423407"><ele>432.14</ele><time>2026-05-24T19:52:11.000Z</time></trkpt>
        <trkpt lat="28.734815" lon="105.4235195"><ele>428.92</ele><time>2026-05-24T19:52:19.000Z</time></trkpt>
        <trkpt lat="28.7347378" lon="105.4235426"><ele>425.27</ele><time>2026-05-24T19:52:27.000Z</time></trkpt>
        <trkpt lat="28.7346456" lon="105.4235046"><ele>424.11</ele><time>2026-05-24T19:52:35.000Z</time></trkpt>
        <trkpt lat="28.7345641" lon="105.4234825"><ele>423.82</ele><time>2026-05-24T19:52:51.000Z</time></trkpt>
        <trkpt lat="28.734468" lon="105.4234963"><ele>424.59</ele><time>2026-05-24T19:53:29.000Z</time></trkpt>
        <trkpt lat="28.7345134" lon="105.4234912"><ele>423.01</ele><time>2026-05-24T19:54:01.000Z</time></trkpt>
        <trkpt lat="28.7344984" lon="105.4234211"><ele>422.86</ele><time>2026-05-24T19:54:15.000Z</time></trkpt>
        <trkpt lat="28.7344311" lon="105.4233624"><ele>424.54</ele><time>2026-05-24T19:54:25.000Z</time></trkpt>
        <trkpt lat="28.7343395" lon="105.4233419"><ele>427.13</ele><time>2026-05-24T19:54:35.000Z</time></trkpt>
        <trkpt lat="28.7342384" lon="105.4233275"><ele>428.62</ele><time>2026-05-24T19:54:45.000Z</time></trkpt>
        <trkpt lat="28.7341413" lon="105.4233067"><ele>429.94</ele><time>2026-05-24T19:54:57.000Z</time></trkpt>
        <trkpt lat="28.7340521" lon="105.4232628"><ele>430.04</ele><time>2026-05-24T19:55:09.000Z</time></trkpt>
        <trkpt lat="28.7339933" lon="105.42318"><ele>430.87</ele><time>2026-05-24T19:55:23.000Z</time></trkpt>
        <trkpt lat="28.7339494" lon="105.4230645"><ele>431.55</ele><time>2026-05-24T19:55:31.000Z</time></trkpt>
        <trkpt lat="28.7339338" lon="105.4229386"><ele>432.05</ele><time>2026-05-24T19:55:41.000Z</time></trkpt>
        <trkpt lat="28.7339499" lon="105.4228909"><ele>432.93</ele><time>2026-05-24T19:55:47.000Z</time></trkpt>
        <trkpt lat="28.7339571" lon="105.4228001"><ele>433.51</ele><time>2026-05-24T19:55:59.000Z</time></trkpt>
        <trkpt lat="28.7339773" lon="105.4226956"><ele>434.41</ele><time>2026-05-24T19:56:07.000Z</time></trkpt>
        <trkpt lat="28.7339973" lon="105.4226206"><ele>435.16</ele><time>2026-05-24T19:56:15.000Z</time></trkpt>
        <trkpt lat="28.7339808" lon="105.422517"><ele>436.12</ele><time>2026-05-24T19:56:27.000Z</time></trkpt>
        <trkpt lat="28.7339372" lon="105.4224136"><ele>435.91</ele><time>2026-05-24T19:56:37.000Z</time></trkpt>
        <trkpt lat="28.7339756" lon="105.4223785"><ele>436.39</ele><time>2026-05-24T19:56:47.000Z</time></trkpt>
        <trkpt lat="28.7340649" lon="105.4223905"><ele>436.79</ele><time>2026-05-24T19:57:28.000Z</time></trkpt>
        <trkpt lat="28.7340229" lon="105.4223924"><ele>436.9</ele><time>2026-05-24T19:57:42.000Z</time></trkpt>
        <trkpt lat="28.7339348" lon="105.4224076"><ele>436.71</ele><time>2026-05-24T19:57:50.000Z</time></trkpt>
        <trkpt lat="28.7339388" lon="105.4224797"><ele>436.54</ele><time>2026-05-24T19:57:59.000Z</time></trkpt>
        <trkpt lat="28.7339665" lon="105.4225918"><ele>436</ele><time>2026-05-24T19:58:07.000Z</time></trkpt>
        <trkpt lat="28.733974" lon="105.4227243"><ele>435.78</ele><time>2026-05-24T19:58:17.000Z</time></trkpt>
        <trkpt lat="28.733957" lon="105.4228402"><ele>435.89</ele><time>2026-05-24T19:58:25.000Z</time></trkpt>
        <trkpt lat="28.7339409" lon="105.4229542"><ele>435.62</ele><time>2026-05-24T19:58:33.000Z</time></trkpt>
        <trkpt lat="28.7339362" lon="105.4230627"><ele>435.79</ele><time>2026-05-24T19:58:41.000Z</time></trkpt>
        <trkpt lat="28.7339733" lon="105.4231686"><ele>435.4</ele><time>2026-05-24T19:58:49.000Z</time></trkpt>
        <trkpt lat="28.7340331" lon="105.423264"><ele>434.84</ele><time>2026-05-24T19:58:57.000Z</time></trkpt>
        <trkpt lat="28.7340692" lon="105.4232693"><ele>434.14</ele><time>2026-05-24T19:59:05.000Z</time></trkpt>
        <trkpt lat="28.7340302" lon="105.4231903"><ele>433.22</ele><time>2026-05-24T19:59:25.000Z</time></trkpt>
        <trkpt lat="28.7339644" lon="105.4230833"><ele>432.75</ele><time>2026-05-24T19:59:33.000Z</time></trkpt>
        <trkpt lat="28.7339339" lon="105.4229604"><ele>433.02</ele><time>2026-05-24T19:59:41.000Z</time></trkpt>
        <trkpt lat="28.7339423" lon="105.4228304"><ele>434.09</ele><time>2026-05-24T19:59:51.000Z</time></trkpt>
        <trkpt lat="28.7339617" lon="105.4227059"><ele>435.41</ele><time>2026-05-24T20:00:01.000Z</time></trkpt>
        <trkpt lat="28.733966" lon="105.4225828"><ele>436.45</ele><time>2026-05-24T20:00:11.000Z</time></trkpt>
        <trkpt lat="28.7339501" lon="105.4224658"><ele>437.38</ele><time>2026-05-24T20:00:21.000Z</time></trkpt>
        <trkpt lat="28.7338939" lon="105.4223735"><ele>437.87</ele><time>2026-05-24T20:00:31.000Z</time></trkpt>
        <trkpt lat="28.7338011" lon="105.4223145"><ele>438.17</ele><time>2026-05-24T20:00:41.000Z</time></trkpt>
        <trkpt lat="28.7337051" lon="105.422247"><ele>438.62</ele><time>2026-05-24T20:00:51.000Z</time></trkpt>
        <trkpt lat="28.7336275" lon="105.4221643"><ele>439.11</ele><time>2026-05-24T20:00:59.000Z</time></trkpt>
        <trkpt lat="28.7335668" lon="105.4220683"><ele>439.42</ele><time>2026-05-24T20:01:07.000Z</time></trkpt>
        <trkpt lat="28.7335094" lon="105.421968"><ele>439.68</ele><time>2026-05-24T20:01:15.000Z</time></trkpt>
        <trkpt lat="28.7334407" lon="105.4218796"><ele>440.07</ele><time>2026-05-24T20:01:23.000Z</time></trkpt>
        <trkpt lat="28.7333672" lon="105.4218074"><ele>440.37</ele><time>2026-05-24T20:01:31.000Z</time></trkpt>
        <trkpt lat="28.7332867" lon="105.4217376"><ele>441.11</ele><time>2026-05-24T20:01:39.000Z</time></trkpt>
        <trkpt lat="28.733207" lon="105.4216796"><ele>440.65</ele><time>2026-05-24T20:01:47.000Z</time></trkpt>
        <trkpt lat="28.7331166" lon="105.4216327"><ele>439.96</ele><time>2026-05-24T20:01:55.000Z</time></trkpt>
        <trkpt lat="28.7330632" lon="105.4216244"><ele>440.15</ele><time>2026-05-24T20:02:07.000Z</time></trkpt>
        <trkpt lat="28.7330087" lon="105.4215643"><ele>439.76</ele><time>2026-05-24T20:02:29.000Z</time></trkpt>
        <trkpt lat="28.7329413" lon="105.4215013"><ele>439.3</ele><time>2026-05-24T20:02:37.000Z</time></trkpt>
        <trkpt lat="28.7328734" lon="105.421421"><ele>439.17</ele><time>2026-05-24T20:02:51.000Z</time></trkpt>
        <trkpt lat="28.7328163" lon="105.4213359"><ele>439.42</ele><time>2026-05-24T20:03:01.000Z</time></trkpt>
        <trkpt lat="28.732756" lon="105.4212572"><ele>438.62</ele><time>2026-05-24T20:03:15.000Z</time></trkpt>
        <trkpt lat="28.732704" lon="105.4211713"><ele>438.55</ele><time>2026-05-24T20:03:25.000Z</time></trkpt>
        <trkpt lat="28.7326624" lon="105.4210734"><ele>437.96</ele><time>2026-05-24T20:03:33.000Z</time></trkpt>
        <trkpt lat="28.7326275" lon="105.4209731"><ele>437.03</ele><time>2026-05-24T20:03:41.000Z</time></trkpt>
        <trkpt lat="28.7326006" lon="105.4208631"><ele>436.21</ele><time>2026-05-24T20:03:49.000Z</time></trkpt>
        <trkpt lat="28.7325873" lon="105.4207454"><ele>434.82</ele><time>2026-05-24T20:03:57.000Z</time></trkpt>
        <trkpt lat="28.732563" lon="105.4206357"><ele>434.07</ele><time>2026-05-24T20:04:05.000Z</time></trkpt>
        <trkpt lat="28.7325441" lon="105.4205443"><ele>434.06</ele><time>2026-05-24T20:04:17.000Z</time></trkpt>
        <trkpt lat="28.7325228" lon="105.4204484"><ele>433.85</ele><time>2026-05-24T20:04:32.000Z</time></trkpt>
        <trkpt lat="28.7324769" lon="105.4203521"><ele>434.41</ele><time>2026-05-24T20:04:46.000Z</time></trkpt>
        <trkpt lat="28.7323956" lon="105.4203112"><ele>436.84</ele><time>2026-05-24T20:05:08.000Z</time></trkpt>
        <trkpt lat="28.7322965" lon="105.4203387"><ele>439.5</ele><time>2026-05-24T20:05:22.000Z</time></trkpt>
        <trkpt lat="28.7321977" lon="105.4203882"><ele>441.55</ele><time>2026-05-24T20:05:36.000Z</time></trkpt>
        <trkpt lat="28.7321" lon="105.4204104"><ele>443.07</ele><time>2026-05-24T20:05:46.000Z</time></trkpt>
        <trkpt lat="28.7319936" lon="105.4204197"><ele>443.93</ele><time>2026-05-24T20:05:58.000Z</time></trkpt>
        <trkpt lat="28.7318923" lon="105.4204043"><ele>443.79</ele><time>2026-05-24T20:06:26.000Z</time></trkpt>
        <trkpt lat="28.7318408" lon="105.4203246"><ele>442.76</ele><time>2026-05-24T20:07:20.000Z</time></trkpt>
        <trkpt lat="28.7319492" lon="105.4203362"><ele>442.18</ele><time>2026-05-24T20:12:33.000Z</time></trkpt>
        <trkpt lat="28.7320325" lon="105.4203939"><ele>443.83</ele><time>2026-05-24T20:12:47.000Z</time></trkpt>
        <trkpt lat="28.7321216" lon="105.4204273"><ele>444.42</ele><time>2026-05-24T20:13:33.000Z</time></trkpt>
        <trkpt lat="28.7322205" lon="105.4204119"><ele>443.84</ele><time>2026-05-24T20:13:53.000Z</time></trkpt>
        <trkpt lat="28.7322712" lon="105.4203273"><ele>443.89</ele><time>2026-05-24T20:14:17.000Z</time></trkpt>
        <trkpt lat="28.7322126" lon="105.4203115"><ele>445.09</ele><time>2026-05-24T20:15:08.000Z</time></trkpt>
        <trkpt lat="28.7321179" lon="105.420339"><ele>443.97</ele><time>2026-05-24T20:15:28.000Z</time></trkpt>
        <trkpt lat="28.7320223" lon="105.4203062"><ele>443.63</ele><time>2026-05-24T20:16:02.000Z</time></trkpt>
        <trkpt lat="28.7319269" lon="105.4202602"><ele>444.52</ele><time>2026-05-24T20:16:14.000Z</time></trkpt>
        <trkpt lat="28.7318633" lon="105.4202212"><ele>444.92</ele><time>2026-05-24T20:16:22.000Z</time></trkpt>
        <trkpt lat="28.7317966" lon="105.4201556"><ele>445.34</ele><time>2026-05-24T20:16:34.000Z</time></trkpt>
        <trkpt lat="28.7317211" lon="105.4200934"><ele>445.51</ele><time>2026-05-24T20:16:46.000Z</time></trkpt>
        <trkpt lat="28.7316319" lon="105.4200537"><ele>445.13</ele><time>2026-05-24T20:16:58.000Z</time></trkpt>
        <trkpt lat="28.73157" lon="105.41997"><ele>445.27</ele><time>2026-05-24T20:17:44.000Z</time></trkpt>
        <trkpt lat="28.731573" lon="105.4198693"><ele>445.33</ele><time>2026-05-24T20:18:00.000Z</time></trkpt>
        <trkpt lat="28.7316482" lon="105.4198091"><ele>446.35</ele><time>2026-05-24T20:18:27.000Z</time></trkpt>
        <trkpt lat="28.7317587" lon="105.4197696"><ele>447.96</ele><time>2026-05-24T20:18:41.000Z</time></trkpt>
        <trkpt lat="28.7318604" lon="105.4197301"><ele>449.72</ele><time>2026-05-24T20:18:53.000Z</time></trkpt>
        <trkpt lat="28.731894" lon="105.4196718"><ele>451.51</ele><time>2026-05-24T20:19:07.000Z</time></trkpt>
        <trkpt lat="28.7319516" lon="105.4195995"><ele>451.8</ele><time>2026-05-24T20:21:03.000Z</time></trkpt>
        <trkpt lat="28.7320442" lon="105.4196285"><ele>453.64</ele><time>2026-05-24T20:25:37.000Z</time></trkpt>
        <trkpt lat="28.7321011" lon="105.4197194"><ele>454.52</ele><time>2026-05-24T20:25:59.000Z</time></trkpt>
        <trkpt lat="28.7320508" lon="105.4196611"><ele>455.16</ele><time>2026-05-24T20:26:30.000Z</time></trkpt>
        <trkpt lat="28.7319731" lon="105.4195901"><ele>455.17</ele><time>2026-05-24T20:26:40.000Z</time></trkpt>
        <trkpt lat="28.7319024" lon="105.4194896"><ele>455.15</ele><time>2026-05-24T20:26:50.000Z</time></trkpt>
        <trkpt lat="28.7318203" lon="105.4194075"><ele>454.37</ele><time>2026-05-24T20:27:02.000Z</time></trkpt>
        <trkpt lat="28.7317549" lon="105.4193239"><ele>454</ele><time>2026-05-24T20:27:32.000Z</time></trkpt>
        <trkpt lat="28.7316745" lon="105.4192641"><ele>453.23</ele><time>2026-05-24T20:27:44.000Z</time></trkpt>
        <trkpt lat="28.7315823" lon="105.4192373"><ele>452.38</ele><time>2026-05-24T20:27:58.000Z</time></trkpt>
        <trkpt lat="28.7314879" lon="105.4192523"><ele>450.73</ele><time>2026-05-24T20:28:22.000Z</time></trkpt>
        <trkpt lat="28.7315322" lon="105.4192724"><ele>448.95</ele><time>2026-05-24T20:28:36.000Z</time></trkpt>
        <trkpt lat="28.7315602" lon="105.4193527"><ele>448.37</ele><time>2026-05-24T20:28:44.000Z</time></trkpt>
        <trkpt lat="28.7315769" lon="105.4194654"><ele>448.36</ele><time>2026-05-24T20:28:54.000Z</time></trkpt>
        <trkpt lat="28.7315835" lon="105.419554"><ele>447.83</ele><time>2026-05-24T20:29:02.000Z</time></trkpt>
        <trkpt lat="28.7315863" lon="105.4196555"><ele>447.37</ele><time>2026-05-24T20:29:16.000Z</time></trkpt>
        <trkpt lat="28.7315372" lon="105.4197392"><ele>447.24</ele><time>2026-05-24T20:29:34.000Z</time></trkpt>
        <trkpt lat="28.7314403" lon="105.4197665"><ele>446.57</ele><time>2026-05-24T20:29:52.000Z</time></trkpt>
        <trkpt lat="28.7313688" lon="105.4198329"><ele>444.86</ele><time>2026-05-24T20:30:02.000Z</time></trkpt>
        <trkpt lat="28.7313349" lon="105.4199404"><ele>443.28</ele><time>2026-05-24T20:30:14.000Z</time></trkpt>
        <trkpt lat="28.7313376" lon="105.4200627"><ele>442.1</ele><time>2026-05-24T20:30:28.000Z</time></trkpt>
        <trkpt lat="28.7313391" lon="105.4201778"><ele>440.29</ele><time>2026-05-24T20:30:40.000Z</time></trkpt>
        <trkpt lat="28.7313454" lon="105.4202977"><ele>437.53</ele><time>2026-05-24T20:30:50.000Z</time></trkpt>
        <trkpt lat="28.7313563" lon="105.420419"><ele>434.82</ele><time>2026-05-24T20:31:00.000Z</time></trkpt>
        <trkpt lat="28.7313166" lon="105.4205137"><ele>431.88</ele><time>2026-05-24T20:31:08.000Z</time></trkpt>
        <trkpt lat="28.7313516" lon="105.4204574"><ele>430.34</ele><time>2026-05-24T20:31:20.000Z</time></trkpt>
        <trkpt lat="28.731438" lon="105.4203781"><ele>429.56</ele><time>2026-05-24T20:31:30.000Z</time></trkpt>
        <trkpt lat="28.7315298" lon="105.4204026"><ele>429.25</ele><time>2026-05-24T20:31:40.000Z</time></trkpt>
        <trkpt lat="28.7315892" lon="105.4204477"><ele>428.55</ele><time>2026-05-24T20:31:48.000Z</time></trkpt>
        <trkpt lat="28.7316312" lon="105.4205535"><ele>428.8</ele><time>2026-05-24T20:32:02.000Z</time></trkpt>
        <trkpt lat="28.7317104" lon="105.420631"><ele>428.4</ele><time>2026-05-24T20:32:12.000Z</time></trkpt>
        <trkpt lat="28.7317761" lon="105.4207157"><ele>427.28</ele><time>2026-05-24T20:32:22.000Z</time></trkpt>
        <trkpt lat="28.7318419" lon="105.4208082"><ele>426.1</ele><time>2026-05-24T20:32:32.000Z</time></trkpt>
        <trkpt lat="28.731931" lon="105.4208605"><ele>425.33</ele><time>2026-05-24T20:32:46.000Z</time></trkpt>
        <trkpt lat="28.7320237" lon="105.4209075"><ele>424.89</ele><time>2026-05-24T20:33:06.000Z</time></trkpt>
        <trkpt lat="28.7321099" lon="105.4209778"><ele>423.18</ele><time>2026-05-24T20:33:32.000Z</time></trkpt>
        <trkpt lat="28.7321882" lon="105.4210561"><ele>420.48</ele><time>2026-05-24T20:34:08.000Z</time></trkpt>
        <trkpt lat="28.7322421" lon="105.4211581"><ele>416.89</ele><time>2026-05-24T20:34:37.000Z</time></trkpt>
        <trkpt lat="28.7322586" lon="105.4212217"><ele>414.2</ele><time>2026-05-24T20:34:45.000Z</time></trkpt>
        <trkpt lat="28.7322598" lon="105.4213162"><ele>412.71</ele><time>2026-05-24T20:35:17.000Z</time></trkpt>
        <trkpt lat="28.7322628" lon="105.4214331"><ele>410.74</ele><time>2026-05-24T20:35:35.000Z</time></trkpt>
        <trkpt lat="28.7322518" lon="105.4214749"><ele>408.45</ele><time>2026-05-24T20:35:43.000Z</time></trkpt>
        <trkpt lat="28.7322248" lon="105.4214051"><ele>406.02</ele><time>2026-05-24T20:36:03.000Z</time></trkpt>
        <trkpt lat="28.7321753" lon="105.4213963"><ele>404.56</ele><time>2026-05-24T20:36:15.000Z</time></trkpt>
        <trkpt lat="28.7322423" lon="105.4214537"><ele>401.38</ele><time>2026-05-24T20:37:44.000Z</time></trkpt>
        <trkpt lat="28.7322913" lon="105.4215399"><ele>402.27</ele><time>2026-05-24T20:40:52.000Z</time></trkpt>
        <trkpt lat="28.7322849" lon="105.4216495"><ele>401.65</ele><time>2026-05-24T20:41:16.000Z</time></trkpt>
        <trkpt lat="28.7322314" lon="105.4215985"><ele>399.52</ele><time>2026-05-24T20:42:16.000Z</time></trkpt>
        <trkpt lat="28.7322752" lon="105.4216576"><ele>397.81</ele><time>2026-05-24T20:43:48.000Z</time></trkpt>
        <trkpt lat="28.7322839" lon="105.4217689"><ele>397.99</ele><time>2026-05-24T20:44:10.000Z</time></trkpt>
        <trkpt lat="28.7323028" lon="105.4218847"><ele>396.41</ele><time>2026-05-24T20:45:04.000Z</time></trkpt>
        <trkpt lat="28.7323021" lon="105.4219941"><ele>394.14</ele><time>2026-05-24T20:45:31.000Z</time></trkpt>
        <trkpt lat="28.7322874" lon="105.4220994"><ele>392.87</ele><time>2026-05-24T20:46:47.000Z</time></trkpt>
        <trkpt lat="28.7321914" lon="105.422102"><ele>391.33</ele><time>2026-05-24T20:48:45.000Z</time></trkpt>
        <trkpt lat="28.7322816" lon="105.4221162"><ele>386.89</ele><time>2026-05-24T20:49:39.000Z</time></trkpt>
        <trkpt lat="28.7323414" lon="105.4221885"><ele>387.17</ele><time>2026-05-24T20:50:01.000Z</time></trkpt>
        <trkpt lat="28.732334" lon="105.4221254"><ele>387.45</ele><time>2026-05-24T20:50:55.000Z</time></trkpt>
        <trkpt lat="28.7323575" lon="105.4220899"><ele>386.95</ele><time>2026-05-24T20:51:15.000Z</time></trkpt>
        <trkpt lat="28.7324095" lon="105.4221337"><ele>386.8</ele><time>2026-05-24T20:51:55.000Z</time></trkpt>
        <trkpt lat="28.7324842" lon="105.4221961"><ele>387.65</ele><time>2026-05-24T20:52:21.000Z</time></trkpt>
        <trkpt lat="28.7325762" lon="105.4222244"><ele>388.17</ele><time>2026-05-24T20:53:01.000Z</time></trkpt>
        <trkpt lat="28.7326748" lon="105.4222312"><ele>389.59</ele><time>2026-05-24T20:53:33.000Z</time></trkpt>
        <trkpt lat="28.7327121" lon="105.4223084"><ele>391.06</ele><time>2026-05-24T20:53:59.000Z</time></trkpt>
        <trkpt lat="28.7327827" lon="105.4223788"><ele>392.74</ele><time>2026-05-24T20:55:22.000Z</time></trkpt>
        <trkpt lat="28.732861" lon="105.4223281"><ele>393.72</ele><time>2026-05-24T20:55:48.000Z</time></trkpt>
        <trkpt lat="28.7327623" lon="105.422321"><ele>396.36</ele><time>2026-05-24T20:57:08.000Z</time></trkpt>
        <trkpt lat="28.7327011" lon="105.4224003"><ele>396.88</ele><time>2026-05-24T20:57:26.000Z</time></trkpt>
        <trkpt lat="28.7326578" lon="105.4224919"><ele>396.8</ele><time>2026-05-24T20:57:50.000Z</time></trkpt>
        <trkpt lat="28.7326269" lon="105.4225903"><ele>396.41</ele><time>2026-05-24T20:58:15.000Z</time></trkpt>
        <trkpt lat="28.7326438" lon="105.4226893"><ele>395.72</ele><time>2026-05-24T20:58:35.000Z</time></trkpt>
        <trkpt lat="28.7327159" lon="105.4227492"><ele>395.55</ele><time>2026-05-24T20:58:55.000Z</time></trkpt>
        <trkpt lat="28.7328147" lon="105.4227635"><ele>396</ele><time>2026-05-24T20:59:24.000Z</time></trkpt>
        <trkpt lat="28.7329155" lon="105.4227655"><ele>396.4</ele><time>2026-05-24T20:59:50.000Z</time></trkpt>
        <trkpt lat="28.732832" lon="105.4227505"><ele>397.77</ele><time>2026-05-24T21:00:54.000Z</time></trkpt>
        <trkpt lat="28.7327404" lon="105.4227346"><ele>398.43</ele><time>2026-05-24T21:01:04.000Z</time></trkpt>
        <trkpt lat="28.7326839" lon="105.4228205"><ele>398.44</ele><time>2026-05-24T21:02:44.000Z</time></trkpt>
        <trkpt lat="28.7327813" lon="105.4228576"><ele>397.81</ele><time>2026-05-24T21:03:20.000Z</time></trkpt>
        <trkpt lat="28.7328592" lon="105.4229173"><ele>395.89</ele><time>2026-05-24T21:03:50.000Z</time></trkpt>
        <trkpt lat="28.7329283" lon="105.4229855"><ele>395.95</ele><time>2026-05-24T21:05:41.000Z</time></trkpt>
        <trkpt lat="28.7328745" lon="105.4228927"><ele>394.01</ele><time>2026-05-24T21:06:20.000Z</time></trkpt>
        <trkpt lat="28.7327977" lon="105.4228321"><ele>392.81</ele><time>2026-05-24T21:06:31.000Z</time></trkpt>
        <trkpt lat="28.7327123" lon="105.4227788"><ele>394.08</ele><time>2026-05-24T21:06:39.000Z</time></trkpt>
        <trkpt lat="28.732652" lon="105.4227013"><ele>396.07</ele><time>2026-05-24T21:06:49.000Z</time></trkpt>
        <trkpt lat="28.7326052" lon="105.4225989"><ele>397.42</ele><time>2026-05-24T21:07:01.000Z</time></trkpt>
        <trkpt lat="28.73262" lon="105.422493"><ele>398.38</ele><time>2026-05-24T21:07:09.000Z</time></trkpt>
        <trkpt lat="28.7326317" lon="105.4225433"><ele>398.3</ele><time>2026-05-24T21:07:21.000Z</time></trkpt>
        <trkpt lat="28.7326469" lon="105.4226545"><ele>397.03</ele><time>2026-05-24T21:07:31.000Z</time></trkpt>
        <trkpt lat="28.7325868" lon="105.4226548"><ele>395.81</ele><time>2026-05-24T21:07:39.000Z</time></trkpt>
        <trkpt lat="28.732496" lon="105.4226381"><ele>395.12</ele><time>2026-05-24T21:07:51.000Z</time></trkpt>
        <trkpt lat="28.7324097" lon="105.42257"><ele>393.38</ele><time>2026-05-24T21:08:12.000Z</time></trkpt>
        <trkpt lat="28.7323169" lon="105.4225374"><ele>392.6</ele><time>2026-05-24T21:09:04.000Z</time></trkpt>
        <trkpt lat="28.7322237" lon="105.4225449"><ele>389.87</ele><time>2026-05-24T21:09:28.000Z</time></trkpt>
        <trkpt lat="28.7321454" lon="105.4225013"><ele>387.46</ele><time>2026-05-24T21:10:28.000Z</time></trkpt>
        <trkpt lat="28.7320588" lon="105.4225112"><ele>385.41</ele><time>2026-05-24T21:10:48.000Z</time></trkpt>
        <trkpt lat="28.7319746" lon="105.4225503"><ele>383.97</ele><time>2026-05-24T21:11:02.000Z</time></trkpt>
        <trkpt lat="28.7318774" lon="105.4225714"><ele>380.86</ele><time>2026-05-24T21:11:22.000Z</time></trkpt>
        <trkpt lat="28.7317806" lon="105.4225695"><ele>379.35</ele><time>2026-05-24T21:11:40.000Z</time></trkpt>
        <trkpt lat="28.7316802" lon="105.4225473"><ele>379.3</ele><time>2026-05-24T21:12:05.000Z</time></trkpt>
        <trkpt lat="28.7316361" lon="105.4225217"><ele>379.17</ele><time>2026-05-24T21:12:09.000Z</time></trkpt>
        <trkpt lat="28.7315545" lon="105.4224864"><ele>379.18</ele><time>2026-05-24T21:12:39.000Z</time></trkpt>
        <trkpt lat="28.7314953" lon="105.4224393"><ele>378.13</ele><time>2026-05-24T21:12:55.000Z</time></trkpt>
        <trkpt lat="28.7314292" lon="105.4224783"><ele>377.62</ele><time>2026-05-24T21:13:13.000Z</time></trkpt>
        <trkpt lat="28.7313973" lon="105.4225108"><ele>377.97</ele><time>2026-05-24T21:13:17.000Z</time></trkpt>
        <trkpt lat="28.731343" lon="105.4225795"><ele>377.91</ele><time>2026-05-24T21:13:32.000Z</time></trkpt>
        <trkpt lat="28.7312582" lon="105.4226224"><ele>379.09</ele><time>2026-05-24T21:13:50.000Z</time></trkpt>
        <trkpt lat="28.7311646" lon="105.4226603"><ele>379.31</ele><time>2026-05-24T21:14:20.000Z</time></trkpt>
        <trkpt lat="28.7310695" lon="105.4226666"><ele>382.04</ele><time>2026-05-24T21:15:01.000Z</time></trkpt>
        <trkpt lat="28.7309705" lon="105.4226723"><ele>386.29</ele><time>2026-05-24T21:15:43.000Z</time></trkpt>
        <trkpt lat="28.7308784" lon="105.4226894"><ele>392.54</ele><time>2026-05-24T21:16:11.000Z</time></trkpt>
        <trkpt lat="28.7307914" lon="105.4226646"><ele>395.34</ele><time>2026-05-24T21:16:58.000Z</time></trkpt>
        <trkpt lat="28.7308306" lon="105.4225454"><ele>398.88</ele><time>2026-05-24T21:18:42.000Z</time></trkpt>
        <trkpt lat="28.7307789" lon="105.4224566"><ele>404.74</ele><time>2026-05-24T21:21:42.000Z</time></trkpt>
        <trkpt lat="28.7307664" lon="105.4224685"><ele>407.76</ele><time>2026-05-24T21:21:46.000Z</time></trkpt>
        <trkpt lat="28.7308399" lon="105.4223993"><ele>410.06</ele><time>2026-05-24T21:23:40.000Z</time></trkpt>
        <trkpt lat="28.7308268" lon="105.4222941"><ele>413.5</ele><time>2026-05-24T21:25:14.000Z</time></trkpt>
        <trkpt lat="28.7308146" lon="105.4221869"><ele>418.99</ele><time>2026-05-24T21:25:46.000Z</time></trkpt>
        <trkpt lat="28.7307981" lon="105.422078"><ele>423.25</ele><time>2026-05-24T21:26:58.000Z</time></trkpt>
        <trkpt lat="28.730722" lon="105.4220202"><ele>426.58</ele><time>2026-05-24T21:27:34.000Z</time></trkpt>
        <trkpt lat="28.7306834" lon="105.4219626"><ele>428.85</ele><time>2026-05-24T21:27:48.000Z</time></trkpt>
        <trkpt lat="28.7307024" lon="105.4218676"><ele>431.06</ele><time>2026-05-24T21:28:02.000Z</time></trkpt>
        <trkpt lat="28.7307259" lon="105.4217646"><ele>432.51</ele><time>2026-05-24T21:28:12.000Z</time></trkpt>
        <trkpt lat="28.7306934" lon="105.4216666"><ele>434.09</ele><time>2026-05-24T21:28:24.000Z</time></trkpt>
        <trkpt lat="28.730612" lon="105.4216436"><ele>434.58</ele><time>2026-05-24T21:28:38.000Z</time></trkpt>
        <trkpt lat="28.7305151" lon="105.4216789"><ele>434.71</ele><time>2026-05-24T21:28:48.000Z</time></trkpt>
        <trkpt lat="28.730411" lon="105.4216797"><ele>433.8</ele><time>2026-05-24T21:29:06.000Z</time></trkpt>
        <trkpt lat="28.7303451" lon="105.4216079"><ele>432.05</ele><time>2026-05-24T21:29:28.000Z</time></trkpt>
        <trkpt lat="28.7302579" lon="105.4215427"><ele>431.19</ele><time>2026-05-24T21:29:50.000Z</time></trkpt>
        <trkpt lat="28.7301594" lon="105.421526"><ele>432.15</ele><time>2026-05-24T21:30:00.000Z</time></trkpt>
        <trkpt lat="28.7300863" lon="105.4215529"><ele>433.34</ele><time>2026-05-24T21:30:16.000Z</time></trkpt>
        <trkpt lat="28.7300175" lon="105.421632"><ele>432.28</ele><time>2026-05-24T21:30:31.000Z</time></trkpt>
        <trkpt lat="28.7299932" lon="105.4217374"><ele>432.17</ele><time>2026-05-24T21:30:47.000Z</time></trkpt>
        <trkpt lat="28.7299641" lon="105.4218572"><ele>431.64</ele><time>2026-05-24T21:31:15.000Z</time></trkpt>
        <trkpt lat="28.7299222" lon="105.4219057"><ele>427.75</ele><time>2026-05-24T21:31:27.000Z</time></trkpt>
        <trkpt lat="28.729875" lon="105.4219835"><ele>425.63</ele><time>2026-05-24T21:31:46.000Z</time></trkpt>
        <trkpt lat="28.7298123" lon="105.4220681"><ele>423.68</ele><time>2026-05-24T21:32:02.000Z</time></trkpt>
        <trkpt lat="28.7297461" lon="105.4221527"><ele>421.27</ele><time>2026-05-24T21:32:16.000Z</time></trkpt>
        <trkpt lat="28.7296952" lon="105.4222424"><ele>419.64</ele><time>2026-05-24T21:33:08.000Z</time></trkpt>
        <trkpt lat="28.7296352" lon="105.4223252"><ele>419.04</ele><time>2026-05-24T21:33:20.000Z</time></trkpt>
        <trkpt lat="28.7295553" lon="105.4223853"><ele>419.09</ele><time>2026-05-24T21:33:30.000Z</time></trkpt>
        <trkpt lat="28.7294709" lon="105.4224463"><ele>419.27</ele><time>2026-05-24T21:33:42.000Z</time></trkpt>
        <trkpt lat="28.7293788" lon="105.4224445"><ele>419.61</ele><time>2026-05-24T21:33:54.000Z</time></trkpt>
        <trkpt lat="28.7293501" lon="105.422499"><ele>420.33</ele><time>2026-05-24T21:34:06.000Z</time></trkpt>
        <trkpt lat="28.7293132" lon="105.4225997"><ele>420.17</ele><time>2026-05-24T21:34:32.000Z</time></trkpt>
        <trkpt lat="28.7292681" lon="105.422711"><ele>419.84</ele><time>2026-05-24T21:34:40.000Z</time></trkpt>
        <trkpt lat="28.7292366" lon="105.4227953"><ele>419.23</ele><time>2026-05-24T21:34:50.000Z</time></trkpt>
        <trkpt lat="28.7292287" lon="105.4229109"><ele>417.98</ele><time>2026-05-24T21:36:03.000Z</time></trkpt>
        <trkpt lat="28.7292203" lon="105.4230251"><ele>417.35</ele><time>2026-05-24T21:36:11.000Z</time></trkpt>
        <trkpt lat="28.7292926" lon="105.4230162"><ele>417.2</ele><time>2026-05-24T21:36:23.000Z</time></trkpt>
        <trkpt lat="28.7293857" lon="105.4230059"><ele>416.05</ele><time>2026-05-24T21:37:01.000Z</time></trkpt>
        <trkpt lat="28.7294455" lon="105.4229218"><ele>415.23</ele><time>2026-05-24T21:37:15.000Z</time></trkpt>
        <trkpt lat="28.729499" lon="105.4228077"><ele>414.07</ele><time>2026-05-24T21:37:33.000Z</time></trkpt>
        <trkpt lat="28.7295175" lon="105.4227587"><ele>413.72</ele><time>2026-05-24T21:37:37.000Z</time></trkpt>
        <trkpt lat="28.7294651" lon="105.4228207"><ele>413.28</ele><time>2026-05-24T21:37:59.000Z</time></trkpt>
        <trkpt lat="28.7293903" lon="105.4229176"><ele>412.13</ele><time>2026-05-24T21:38:08.000Z</time></trkpt>
        <trkpt lat="28.7293016" lon="105.4229978"><ele>411.7</ele><time>2026-05-24T21:38:16.000Z</time></trkpt>
        <trkpt lat="28.7292026" lon="105.4230559"><ele>412.8</ele><time>2026-05-24T21:38:28.000Z</time></trkpt>
        <trkpt lat="28.7291424" lon="105.4229914"><ele>414.95</ele><time>2026-05-24T21:38:56.000Z</time></trkpt>
        <trkpt lat="28.729113" lon="105.4228745"><ele>415.39</ele><time>2026-05-24T21:39:16.000Z</time></trkpt>
        <trkpt lat="28.7291495" lon="105.4227584"><ele>415.62</ele><time>2026-05-24T21:39:54.000Z</time></trkpt>
        <trkpt lat="28.7291627" lon="105.4226318"><ele>414.31</ele><time>2026-05-24T21:40:12.000Z</time></trkpt>
        <trkpt lat="28.7291801" lon="105.4226817"><ele>414.49</ele><time>2026-05-24T21:40:34.000Z</time></trkpt>
        <trkpt lat="28.7292201" lon="105.422782"><ele>414.53</ele><time>2026-05-24T21:40:48.000Z</time></trkpt>
        <trkpt lat="28.729234" lon="105.4229238"><ele>414.45</ele><time>2026-05-24T21:41:00.000Z</time></trkpt>
        <trkpt lat="28.7292245" lon="105.4230497"><ele>414.51</ele><time>2026-05-24T21:41:12.000Z</time></trkpt>
        <trkpt lat="28.7291605" lon="105.4231485"><ele>413.99</ele><time>2026-05-24T21:41:22.000Z</time></trkpt>
        <trkpt lat="28.7290787" lon="105.4232225"><ele>413.48</ele><time>2026-05-24T21:41:32.000Z</time></trkpt>
        <trkpt lat="28.7289831" lon="105.4232149"><ele>413.91</ele><time>2026-05-24T21:41:42.000Z</time></trkpt>
        <trkpt lat="28.7288887" lon="105.4232222"><ele>414.25</ele><time>2026-05-24T21:42:12.000Z</time></trkpt>
        <trkpt lat="28.7288575" lon="105.4232991"><ele>413.28</ele><time>2026-05-24T21:42:46.000Z</time></trkpt>
        <trkpt lat="28.7287913" lon="105.4233584"><ele>411.77</ele><time>2026-05-24T21:43:26.000Z</time></trkpt>
        <trkpt lat="28.7287054" lon="105.4233935"><ele>410.65</ele><time>2026-05-24T21:43:54.000Z</time></trkpt>
        <trkpt lat="28.7286641" lon="105.4233226"><ele>411.04</ele><time>2026-05-24T21:44:34.000Z</time></trkpt>
        <trkpt lat="28.7286508" lon="105.4233818"><ele>409.88</ele><time>2026-05-24T21:45:32.000Z</time></trkpt>
        <trkpt lat="28.728679" lon="105.4234798"><ele>406.44</ele><time>2026-05-24T21:45:42.000Z</time></trkpt>
        <trkpt lat="28.7287441" lon="105.4235712"><ele>404.47</ele><time>2026-05-24T21:45:54.000Z</time></trkpt>
        <trkpt lat="28.7288237" lon="105.4236521"><ele>404.36</ele><time>2026-05-24T21:46:08.000Z</time></trkpt>
        <trkpt lat="28.7288039" lon="105.4237385"><ele>404.27</ele><time>2026-05-24T21:46:22.000Z</time></trkpt>
        <trkpt lat="28.7287438" lon="105.4238194"><ele>403.47</ele><time>2026-05-24T21:46:32.000Z</time></trkpt>
        <trkpt lat="28.7286676" lon="105.4237793"><ele>402.26</ele><time>2026-05-24T21:46:50.000Z</time></trkpt>
        <trkpt lat="28.7285777" lon="105.4237162"><ele>402.35</ele><time>2026-05-24T21:47:08.000Z</time></trkpt>
        <trkpt lat="28.7284865" lon="105.4236533"><ele>402.23</ele><time>2026-05-24T21:47:28.000Z</time></trkpt>
        <trkpt lat="28.7284216" lon="105.4235645"><ele>401.08</ele><time>2026-05-24T21:47:42.000Z</time></trkpt>
        <trkpt lat="28.72845" lon="105.4235971"><ele>399.72</ele><time>2026-05-24T21:48:11.000Z</time></trkpt>
        <trkpt lat="28.7285304" lon="105.4236577"><ele>397.8</ele><time>2026-05-24T21:48:35.000Z</time></trkpt>
        <trkpt lat="28.7286246" lon="105.4237236"><ele>396.84</ele><time>2026-05-24T21:48:57.000Z</time></trkpt>
        <trkpt lat="28.7286988" lon="105.4238175"><ele>398.9</ele><time>2026-05-24T21:49:15.000Z</time></trkpt>
        <trkpt lat="28.728715" lon="105.423904"><ele>400.76</ele><time>2026-05-24T21:49:25.000Z</time></trkpt>
        <trkpt lat="28.7286681" lon="105.4239876"><ele>401.6</ele><time>2026-05-24T21:49:49.000Z</time></trkpt>
        <trkpt lat="28.7285934" lon="105.4240691"><ele>400.03</ele><time>2026-05-24T21:49:59.000Z</time></trkpt>
        <trkpt lat="28.7285429" lon="105.4241424"><ele>398.64</ele><time>2026-05-24T21:50:15.000Z</time></trkpt>
        <trkpt lat="28.7285118" lon="105.4242444"><ele>395.52</ele><time>2026-05-24T21:50:45.000Z</time></trkpt>
        <trkpt lat="28.7284375" lon="105.4242927"><ele>392.23</ele><time>2026-05-24T21:50:59.000Z</time></trkpt>
        <trkpt lat="28.7284814" lon="105.4243272"><ele>389.44</ele><time>2026-05-24T21:51:31.000Z</time></trkpt>
        <trkpt lat="28.7285711" lon="105.4243248"><ele>387.14</ele><time>2026-05-24T21:51:48.000Z</time></trkpt>
        <trkpt lat="28.7286725" lon="105.424276"><ele>385.15</ele><time>2026-05-24T21:52:00.000Z</time></trkpt>
        <trkpt lat="28.7287328" lon="105.4242357"><ele>383.96</ele><time>2026-05-24T21:52:06.000Z</time></trkpt>
        <trkpt lat="28.7288187" lon="105.4242073"><ele>383.3</ele><time>2026-05-24T21:52:26.000Z</time></trkpt>
        <trkpt lat="28.7289137" lon="105.4241711"><ele>383.07</ele><time>2026-05-24T21:53:10.000Z</time></trkpt>
        <trkpt lat="28.7289622" lon="105.4242336"><ele>382.37</ele><time>2026-05-24T21:53:34.000Z</time></trkpt>
        <trkpt lat="28.7290222" lon="105.4243209"><ele>379.29</ele><time>2026-05-24T21:53:56.000Z</time></trkpt>
        <trkpt lat="28.7291009" lon="105.4243935"><ele>374.79</ele><time>2026-05-24T21:54:47.000Z</time></trkpt>
        <trkpt lat="28.7290408" lon="105.4243284"><ele>367.62</ele><time>2026-05-24T21:57:08.000Z</time></trkpt>
        <trkpt lat="28.728972" lon="105.4242552"><ele>366.68</ele><time>2026-05-24T21:57:44.000Z</time></trkpt>
        <trkpt lat="28.728914" lon="105.4241746"><ele>368.49</ele><time>2026-05-24T21:58:26.000Z</time></trkpt>
        <trkpt lat="28.7288284" lon="105.4241607"><ele>373.54</ele><time>2026-05-24T21:58:42.000Z</time></trkpt>
        <trkpt lat="28.7287339" lon="105.4241955"><ele>378.14</ele><time>2026-05-24T21:58:56.000Z</time></trkpt>
        <trkpt lat="28.7286447" lon="105.4242498"><ele>380.95</ele><time>2026-05-24T21:59:04.000Z</time></trkpt>
        <trkpt lat="28.7285488" lon="105.4242961"><ele>383.08</ele><time>2026-05-24T21:59:14.000Z</time></trkpt>
        <trkpt lat="28.7284777" lon="105.4243797"><ele>383.96</ele><time>2026-05-24T21:59:24.000Z</time></trkpt>
        <trkpt lat="28.7284028" lon="105.4244501"><ele>384.5</ele><time>2026-05-24T21:59:32.000Z</time></trkpt>
        <trkpt lat="28.7283158" lon="105.4245102"><ele>384.03</ele><time>2026-05-24T21:59:45.000Z</time></trkpt>
        <trkpt lat="28.7282552" lon="105.4245222"><ele>381.44</ele><time>2026-05-24T21:59:53.000Z</time></trkpt>
        <trkpt lat="28.7282069" lon="105.4245857"><ele>378.21</ele><time>2026-05-24T22:00:25.000Z</time></trkpt>
        <trkpt lat="28.7281345" lon="105.4246539"><ele>375.74</ele><time>2026-05-24T22:00:41.000Z</time></trkpt>
        <trkpt lat="28.7280467" lon="105.4246523"><ele>371.71</ele><time>2026-05-24T22:00:59.000Z</time></trkpt>
        <trkpt lat="28.7279549" lon="105.4246282"><ele>368.44</ele><time>2026-05-24T22:01:15.000Z</time></trkpt>
        <trkpt lat="28.7278554" lon="105.4245765"><ele>365.88</ele><time>2026-05-24T22:01:34.000Z</time></trkpt>
        <trkpt lat="28.7277564" lon="105.4245392"><ele>364.54</ele><time>2026-05-24T22:02:02.000Z</time></trkpt>
        <trkpt lat="28.7277332" lon="105.4244455"><ele>359.76</ele><time>2026-05-24T22:02:28.000Z</time></trkpt>
        <trkpt lat="28.7277618" lon="105.4243427"><ele>355.53</ele><time>2026-05-24T22:02:46.000Z</time></trkpt>
        <trkpt lat="28.727761" lon="105.4242327"><ele>351.66</ele><time>2026-05-24T22:03:26.000Z</time></trkpt>
        <trkpt lat="28.7277717" lon="105.4241156"><ele>351.66</ele><time>2026-05-24T22:04:32.000Z</time></trkpt>
        <trkpt lat="28.7278101" lon="105.4240215"><ele>350.9</ele><time>2026-05-24T22:05:14.000Z</time></trkpt>
        <trkpt lat="28.7278725" lon="105.4239482"><ele>351.45</ele><time>2026-05-24T22:06:11.000Z</time></trkpt>
        <trkpt lat="28.7279051" lon="105.4238478"><ele>355.33</ele><time>2026-05-24T22:07:09.000Z</time></trkpt>
        <trkpt lat="28.7279357" lon="105.4237481"><ele>361.48</ele><time>2026-05-24T22:07:38.000Z</time></trkpt>
        <trkpt lat="28.7280015" lon="105.423771"><ele>366.33</ele><time>2026-05-24T22:08:12.000Z</time></trkpt>
        <trkpt lat="28.7280502" lon="105.4237153"><ele>369.64</ele><time>2026-05-24T22:08:26.000Z</time></trkpt>
        <trkpt lat="28.7280637" lon="105.4236668"><ele>371.29</ele><time>2026-05-24T22:08:50.000Z</time></trkpt>
        <trkpt lat="28.7281279" lon="105.4236766"><ele>373.53</ele><time>2026-05-24T22:09:12.000Z</time></trkpt>
        <trkpt lat="28.728201" lon="105.4236213"><ele>375.8</ele><time>2026-05-24T22:10:22.000Z</time></trkpt>
        <trkpt lat="28.7281189" lon="105.4235634"><ele>380.26</ele><time>2026-05-24T22:10:34.000Z</time></trkpt>
        <trkpt lat="28.7280702" lon="105.4234742"><ele>381.77</ele><time>2026-05-24T22:10:42.000Z</time></trkpt>
        <trkpt lat="28.7280439" lon="105.4233613"><ele>383.67</ele><time>2026-05-24T22:10:52.000Z</time></trkpt>
        <trkpt lat="28.7280811" lon="105.4232536"><ele>384.66</ele><time>2026-05-24T22:11:06.000Z</time></trkpt>
        <trkpt lat="28.7281485" lon="105.4231708"><ele>384.05</ele><time>2026-05-24T22:11:16.000Z</time></trkpt>
        <trkpt lat="28.7282436" lon="105.4231438"><ele>383.04</ele><time>2026-05-24T22:11:24.000Z</time></trkpt>
        <trkpt lat="28.7283195" lon="105.4230823"><ele>382.74</ele><time>2026-05-24T22:11:34.000Z</time></trkpt>
        <trkpt lat="28.7283722" lon="105.4229982"><ele>383.35</ele><time>2026-05-24T22:11:41.000Z</time></trkpt>
        <trkpt lat="28.7284399" lon="105.4230225"><ele>384.45</ele><time>2026-05-24T22:12:17.000Z</time></trkpt>
        <trkpt lat="28.7285332" lon="105.4230384"><ele>388.04</ele><time>2026-05-24T22:12:41.000Z</time></trkpt>
        <trkpt lat="28.7286037" lon="105.4231064"><ele>393.4</ele><time>2026-05-24T22:13:25.000Z</time></trkpt>
        <trkpt lat="28.7286222" lon="105.4232185"><ele>400.26</ele><time>2026-05-24T22:13:43.000Z</time></trkpt>
        <trkpt lat="28.7286787" lon="105.4233089"><ele>403.29</ele><time>2026-05-24T22:14:11.000Z</time></trkpt>
        <trkpt lat="28.7286954" lon="105.4234201"><ele>405.62</ele><time>2026-05-24T22:14:23.000Z</time></trkpt>
        <trkpt lat="28.7287649" lon="105.4235088"><ele>407.71</ele><time>2026-05-24T22:14:35.000Z</time></trkpt>
        <trkpt lat="28.7288743" lon="105.4235186"><ele>409.37</ele><time>2026-05-24T22:14:43.000Z</time></trkpt>
        <trkpt lat="28.7289635" lon="105.4234612"><ele>410.27</ele><time>2026-05-24T22:14:57.000Z</time></trkpt>
        <trkpt lat="28.7289387" lon="105.4234985"><ele>410.73</ele><time>2026-05-24T22:15:23.000Z</time></trkpt>
        <trkpt lat="28.7288334" lon="105.4235051"><ele>408.93</ele><time>2026-05-24T22:15:33.000Z</time></trkpt>
        <trkpt lat="28.7287467" lon="105.4234379"><ele>408.18</ele><time>2026-05-24T22:15:43.000Z</time></trkpt>
        <trkpt lat="28.7287042" lon="105.4233226"><ele>408.64</ele><time>2026-05-24T22:15:53.000Z</time></trkpt>
        <trkpt lat="28.7287164" lon="105.4232054"><ele>408.85</ele><time>2026-05-24T22:16:03.000Z</time></trkpt>
        <trkpt lat="28.7287449" lon="105.4230946"><ele>407.41</ele><time>2026-05-24T22:16:11.000Z</time></trkpt>
        <trkpt lat="28.7287894" lon="105.4229943"><ele>407.41</ele><time>2026-05-24T22:16:21.000Z</time></trkpt>
        <trkpt lat="28.7288404" lon="105.4228917"><ele>406.96</ele><time>2026-05-24T22:16:31.000Z</time></trkpt>
        <trkpt lat="28.728899" lon="105.4227977"><ele>407.66</ele><time>2026-05-24T22:16:41.000Z</time></trkpt>
        <trkpt lat="28.7289398" lon="105.4227006"><ele>408.18</ele><time>2026-05-24T22:16:51.000Z</time></trkpt>
        <trkpt lat="28.728962" lon="105.4225944"><ele>409.52</ele><time>2026-05-24T22:17:03.000Z</time></trkpt>
        <trkpt lat="28.7289574" lon="105.4224866"><ele>409.38</ele><time>2026-05-24T22:17:17.000Z</time></trkpt>
        <trkpt lat="28.7289592" lon="105.4223791"><ele>408.79</ele><time>2026-05-24T22:17:33.000Z</time></trkpt>
        <trkpt lat="28.7290108" lon="105.4222814"><ele>408.38</ele><time>2026-05-24T22:17:43.000Z</time></trkpt>
        <trkpt lat="28.7290391" lon="105.4222523"><ele>408.62</ele><time>2026-05-24T22:17:49.000Z</time></trkpt>
        <trkpt lat="28.7290147" lon="105.4221775"><ele>408.07</ele><time>2026-05-24T22:18:11.000Z</time></trkpt>
        <trkpt lat="28.7289901" lon="105.4220691"><ele>406.72</ele><time>2026-05-24T22:18:23.000Z</time></trkpt>
        <trkpt lat="28.7290216" lon="105.421967"><ele>405.55</ele><time>2026-05-24T22:18:39.000Z</time></trkpt>
        <trkpt lat="28.7290521" lon="105.421861"><ele>403.58</ele><time>2026-05-24T22:19:21.000Z</time></trkpt>
        <trkpt lat="28.7290667" lon="105.4217513"><ele>401.98</ele><time>2026-05-24T22:19:34.000Z</time></trkpt>
        <trkpt lat="28.7291383" lon="105.4217272"><ele>402.05</ele><time>2026-05-24T22:20:14.000Z</time></trkpt>
        <trkpt lat="28.7291764" lon="105.4216421"><ele>404.16</ele><time>2026-05-24T22:20:41.000Z</time></trkpt>
        <trkpt lat="28.7291991" lon="105.4215392"><ele>407.26</ele><time>2026-05-24T22:20:59.000Z</time></trkpt>
        <trkpt lat="28.7292257" lon="105.4214348"><ele>409.94</ele><time>2026-05-24T22:21:35.000Z</time></trkpt>
        <trkpt lat="28.7292522" lon="105.4213336"><ele>414.86</ele><time>2026-05-24T22:22:11.000Z</time></trkpt>
        <trkpt lat="28.7293155" lon="105.4212613"><ele>418.02</ele><time>2026-05-24T22:22:39.000Z</time></trkpt>
        <trkpt lat="28.7293659" lon="105.4211522"><ele>421.58</ele><time>2026-05-24T22:22:50.000Z</time></trkpt>
        <trkpt lat="28.7293739" lon="105.4210358"><ele>423.02</ele><time>2026-05-24T22:22:58.000Z</time></trkpt>
        <trkpt lat="28.729333" lon="105.4209281"><ele>423.84</ele><time>2026-05-24T22:23:06.000Z</time></trkpt>
        <trkpt lat="28.7292513" lon="105.4208482"><ele>425.18</ele><time>2026-05-24T22:23:16.000Z</time></trkpt>
        <trkpt lat="28.7291553" lon="105.4207899"><ele>426.27</ele><time>2026-05-24T22:23:26.000Z</time></trkpt>
        <trkpt lat="28.7290603" lon="105.4208214"><ele>426.33</ele><time>2026-05-24T22:23:34.000Z</time></trkpt>
        <trkpt lat="28.7289606" lon="105.4208733"><ele>425.59</ele><time>2026-05-24T22:23:42.000Z</time></trkpt>
        <trkpt lat="28.7288576" lon="105.4209239"><ele>424.85</ele><time>2026-05-24T22:23:52.000Z</time></trkpt>
        <trkpt lat="28.7287609" lon="105.4209647"><ele>424.76</ele><time>2026-05-24T22:24:02.000Z</time></trkpt>
        <trkpt lat="28.7286667" lon="105.4210032"><ele>424.63</ele><time>2026-05-24T22:24:12.000Z</time></trkpt>
        <trkpt lat="28.728573" lon="105.4210173"><ele>424.47</ele><time>2026-05-24T22:24:22.000Z</time></trkpt>
        <trkpt lat="28.7284825" lon="105.4210107"><ele>424.48</ele><time>2026-05-24T22:24:32.000Z</time></trkpt>
        <trkpt lat="28.728385" lon="105.4209971"><ele>424.73</ele><time>2026-05-24T22:24:42.000Z</time></trkpt>
        <trkpt lat="28.7282918" lon="105.4209829"><ele>425.13</ele><time>2026-05-24T22:24:52.000Z</time></trkpt>
        <trkpt lat="28.7282097" lon="105.420939"><ele>425.94</ele><time>2026-05-24T22:25:04.000Z</time></trkpt>
        <trkpt lat="28.7281498" lon="105.420851"><ele>426.49</ele><time>2026-05-24T22:25:14.000Z</time></trkpt>
        <trkpt lat="28.7280711" lon="105.4207741"><ele>427.09</ele><time>2026-05-24T22:25:26.000Z</time></trkpt>
        <trkpt lat="28.7279871" lon="105.420716"><ele>427.63</ele><time>2026-05-24T22:25:36.000Z</time></trkpt>
        <trkpt lat="28.7278931" lon="105.420672"><ele>427.85</ele><time>2026-05-24T22:25:50.000Z</time></trkpt>
        <trkpt lat="28.7277958" lon="105.4206754"><ele>427.9</ele><time>2026-05-24T22:26:02.000Z</time></trkpt>
        <trkpt lat="28.7277179" lon="105.4207472"><ele>427.61</ele><time>2026-05-24T22:26:14.000Z</time></trkpt>
        <trkpt lat="28.7276832" lon="105.4208618"><ele>427.1</ele><time>2026-05-24T22:26:28.000Z</time></trkpt>
        <trkpt lat="28.72766" lon="105.4209754"><ele>426.57</ele><time>2026-05-24T22:26:44.000Z</time></trkpt>
        <trkpt lat="28.7275997" lon="105.4210507"><ele>425.15</ele><time>2026-05-24T22:27:00.000Z</time></trkpt>
        <trkpt lat="28.7275189" lon="105.4211044"><ele>423.85</ele><time>2026-05-24T22:27:14.000Z</time></trkpt>
        <trkpt lat="28.7274302" lon="105.421147"><ele>422.4</ele><time>2026-05-24T22:27:36.000Z</time></trkpt>
        <trkpt lat="28.727328" lon="105.4211631"><ele>421.91</ele><time>2026-05-24T22:27:48.000Z</time></trkpt>
        <trkpt lat="28.7272223" lon="105.4211576"><ele>421.3</ele><time>2026-05-24T22:27:58.000Z</time></trkpt>
        <trkpt lat="28.7271267" lon="105.4211242"><ele>420.82</ele><time>2026-05-24T22:28:06.000Z</time></trkpt>
        <trkpt lat="28.7270274" lon="105.421083"><ele>420.35</ele><time>2026-05-24T22:28:16.000Z</time></trkpt>
        <trkpt lat="28.7269347" lon="105.4210397"><ele>419.82</ele><time>2026-05-24T22:28:26.000Z</time></trkpt>
        <trkpt lat="28.7268379" lon="105.4210023"><ele>419.81</ele><time>2026-05-24T22:28:36.000Z</time></trkpt>
        <trkpt lat="28.7267294" lon="105.4209906"><ele>419.32</ele><time>2026-05-24T22:28:48.000Z</time></trkpt>
        <trkpt lat="28.7266296" lon="105.4209723"><ele>420.12</ele><time>2026-05-24T22:28:56.000Z</time></trkpt>
        <trkpt lat="28.7265341" lon="105.4209586"><ele>418.92</ele><time>2026-05-24T22:29:04.000Z</time></trkpt>
        <trkpt lat="28.7264351" lon="105.4209479"><ele>418.42</ele><time>2026-05-24T22:29:12.000Z</time></trkpt>
        <trkpt lat="28.7263524" lon="105.4208915"><ele>416.14</ele><time>2026-05-24T22:29:22.000Z</time></trkpt>
        <trkpt lat="28.7262528" lon="105.4208439"><ele>414.99</ele><time>2026-05-24T22:29:30.000Z</time></trkpt>
        <trkpt lat="28.7261551" lon="105.4208172"><ele>413.56</ele><time>2026-05-24T22:29:38.000Z</time></trkpt>
        <trkpt lat="28.7260592" lon="105.420834"><ele>412.49</ele><time>2026-05-24T22:29:46.000Z</time></trkpt>
        <trkpt lat="28.7259795" lon="105.4208917"><ele>411.29</ele><time>2026-05-24T22:29:54.000Z</time></trkpt>
        <trkpt lat="28.7259112" lon="105.4209783"><ele>410.37</ele><time>2026-05-24T22:30:02.000Z</time></trkpt>
        <trkpt lat="28.7258539" lon="105.4210796"><ele>409.85</ele><time>2026-05-24T22:30:12.000Z</time></trkpt>
        <trkpt lat="28.7258826" lon="105.4210373"><ele>409.27</ele><time>2026-05-24T22:30:20.000Z</time></trkpt>
        <trkpt lat="28.7259388" lon="105.4209454"><ele>408.7</ele><time>2026-05-24T22:30:28.000Z</time></trkpt>
        <trkpt lat="28.7259828" lon="105.420873"><ele>407.99</ele><time>2026-05-24T22:30:36.000Z</time></trkpt>
        <trkpt lat="28.7259523" lon="105.4207684"><ele>407.71</ele><time>2026-05-24T22:30:50.000Z</time></trkpt>
        <trkpt lat="28.7259504" lon="105.4206502"><ele>407.02</ele><time>2026-05-24T22:30:58.000Z</time></trkpt>
        <trkpt lat="28.7259724" lon="105.4205337"><ele>406.06</ele><time>2026-05-24T22:31:04.000Z</time></trkpt>
        <trkpt lat="28.7259921" lon="105.4204188"><ele>405.42</ele><time>2026-05-24T22:31:12.000Z</time></trkpt>
        <trkpt lat="28.7259889" lon="105.4203868"><ele>404.59</ele><time>2026-05-24T22:31:22.000Z</time></trkpt>
        <trkpt lat="28.7260157" lon="105.4203104"><ele>403.74</ele><time>2026-05-24T22:31:46.000Z</time></trkpt>
        <trkpt lat="28.7260381" lon="105.4202119"><ele>402.5</ele><time>2026-05-24T22:31:56.000Z</time></trkpt>
        <trkpt lat="28.7260659" lon="105.4200937"><ele>400.79</ele><time>2026-05-24T22:32:04.000Z</time></trkpt>
        <trkpt lat="28.7260906" lon="105.4199757"><ele>400.07</ele><time>2026-05-24T22:32:16.000Z</time></trkpt>
        <trkpt lat="28.7261194" lon="105.4198525"><ele>399.92</ele><time>2026-05-24T22:32:29.000Z</time></trkpt>
        <trkpt lat="28.7261468" lon="105.4197431"><ele>397.46</ele><time>2026-05-24T22:32:39.000Z</time></trkpt>
        <trkpt lat="28.7261483" lon="105.4196342"><ele>395.53</ele><time>2026-05-24T22:33:03.000Z</time></trkpt>
        <trkpt lat="28.7261714" lon="105.4195358"><ele>393.53</ele><time>2026-05-24T22:33:21.000Z</time></trkpt>
        <trkpt lat="28.7262174" lon="105.4194457"><ele>391.54</ele><time>2026-05-24T22:35:09.000Z</time></trkpt>
        <trkpt lat="28.7263265" lon="105.4194286"><ele>389.22</ele><time>2026-05-24T22:35:17.000Z</time></trkpt>
        <trkpt lat="28.7264265" lon="105.4194396"><ele>387.49</ele><time>2026-05-24T22:35:29.000Z</time></trkpt>
        <trkpt lat="28.7265152" lon="105.4194716"><ele>386.09</ele><time>2026-05-24T22:35:41.000Z</time></trkpt>
        <trkpt lat="28.7266037" lon="105.4194733"><ele>384.28</ele><time>2026-05-24T22:35:51.000Z</time></trkpt>
        <trkpt lat="28.7266942" lon="105.4194955"><ele>381.36</ele><time>2026-05-24T22:36:01.000Z</time></trkpt>
        <trkpt lat="28.726797" lon="105.4195078"><ele>377.9</ele><time>2026-05-24T22:36:09.000Z</time></trkpt>
        <trkpt lat="28.7268713" lon="105.4194366"><ele>374.66</ele><time>2026-05-24T22:36:19.000Z</time></trkpt>
        <trkpt lat="28.7269529" lon="105.4193791"><ele>372.93</ele><time>2026-05-24T22:36:29.000Z</time></trkpt>
        <trkpt lat="28.7270244" lon="105.4193031"><ele>371.14</ele><time>2026-05-24T22:36:37.000Z</time></trkpt>
        <trkpt lat="28.7271119" lon="105.4192633"><ele>369.83</ele><time>2026-05-24T22:36:51.000Z</time></trkpt>
        <trkpt lat="28.7271957" lon="105.4192137"><ele>367.78</ele><time>2026-05-24T22:37:15.000Z</time></trkpt>
        <trkpt lat="28.7272623" lon="105.4191324"><ele>365.46</ele><time>2026-05-24T22:37:29.000Z</time></trkpt>
        <trkpt lat="28.7273426" lon="105.4190564"><ele>363.11</ele><time>2026-05-24T22:37:39.000Z</time></trkpt>
        <trkpt lat="28.7272997" lon="105.4189962"><ele>360.03</ele><time>2026-05-24T22:37:55.000Z</time></trkpt>
        <trkpt lat="28.7272058" lon="105.4189396"><ele>358</ele><time>2026-05-24T22:38:07.000Z</time></trkpt>
        <trkpt lat="28.7271368" lon="105.4188954"><ele>356.53</ele><time>2026-05-24T22:38:15.000Z</time></trkpt>
        <trkpt lat="28.7271544" lon="105.4188178"><ele>355.49</ele><time>2026-05-24T22:38:31.000Z</time></trkpt>
        <trkpt lat="28.7272225" lon="105.4187469"><ele>351</ele><time>2026-05-24T22:38:43.000Z</time></trkpt>
        <trkpt lat="28.7273028" lon="105.4186709"><ele>347.7</ele><time>2026-05-24T22:39:00.000Z</time></trkpt>
        <trkpt lat="28.7273793" lon="105.4185786"><ele>344.39</ele><time>2026-05-24T22:39:08.000Z</time></trkpt>
        <trkpt lat="28.7274703" lon="105.4185321"><ele>342.32</ele><time>2026-05-24T22:39:16.000Z</time></trkpt>
        <trkpt lat="28.7275613" lon="105.4184676"><ele>341.15</ele><time>2026-05-24T22:39:26.000Z</time></trkpt>
        <trkpt lat="28.7276519" lon="105.4184342"><ele>340.09</ele><time>2026-05-24T22:39:36.000Z</time></trkpt>
        <trkpt lat="28.7277338" lon="105.4183795"><ele>337.77</ele><time>2026-05-24T22:39:46.000Z</time></trkpt>
        <trkpt lat="28.7278249" lon="105.4183142"><ele>334.47</ele><time>2026-05-24T22:40:03.000Z</time></trkpt>
        <trkpt lat="28.727914" lon="105.4182595"><ele>329.51</ele><time>2026-05-24T22:40:13.000Z</time></trkpt>
        <trkpt lat="28.7279757" lon="105.4182324"><ele>326.37</ele><time>2026-05-24T22:40:21.000Z</time></trkpt>
        <trkpt lat="28.7280459" lon="105.4181808"><ele>323.46</ele><time>2026-05-24T22:40:31.000Z</time></trkpt>
        <trkpt lat="28.7281273" lon="105.4181423"><ele>321.4</ele><time>2026-05-24T22:40:41.000Z</time></trkpt>
        <trkpt lat="28.7282226" lon="105.4181204"><ele>319.63</ele><time>2026-05-24T22:40:53.000Z</time></trkpt>
        <trkpt lat="28.7283057" lon="105.4180484"><ele>316.99</ele><time>2026-05-24T22:41:05.000Z</time></trkpt>
        <trkpt lat="28.7283773" lon="105.4179616"><ele>314.31</ele><time>2026-05-24T22:41:15.000Z</time></trkpt>
        <trkpt lat="28.7284525" lon="105.4178781"><ele>312.85</ele><time>2026-05-24T22:41:23.000Z</time></trkpt>
        <trkpt lat="28.728533" lon="105.4177986"><ele>311.59</ele><time>2026-05-24T22:41:33.000Z</time></trkpt>
        <trkpt lat="28.7286132" lon="105.4177195"><ele>309.74</ele><time>2026-05-24T22:41:43.000Z</time></trkpt>
        <trkpt lat="28.7286897" lon="105.417651"><ele>309.31</ele><time>2026-05-24T22:41:53.000Z</time></trkpt>
        <trkpt lat="28.728747" lon="105.4175552"><ele>309.26</ele><time>2026-05-24T22:42:02.000Z</time></trkpt>
        <trkpt lat="28.7287656" lon="105.4174323"><ele>309.06</ele><time>2026-05-24T22:42:12.000Z</time></trkpt>
        <trkpt lat="28.7287699" lon="105.4173009"><ele>307.61</ele><time>2026-05-24T22:42:20.000Z</time></trkpt>
        <trkpt lat="28.7288329" lon="105.41721"><ele>305.71</ele><time>2026-05-24T22:42:30.000Z</time></trkpt>
        <trkpt lat="28.7288755" lon="105.4171431"><ele>302.13</ele><time>2026-05-24T22:42:39.000Z</time></trkpt>
        <trkpt lat="28.7289156" lon="105.4170371"><ele>299.86</ele><time>2026-05-24T22:42:59.000Z</time></trkpt>
        <trkpt lat="28.7289826" lon="105.4169562"><ele>297.14</ele><time>2026-05-24T22:43:05.000Z</time></trkpt>
        <trkpt lat="28.729025" lon="105.4168601"><ele>295</ele><time>2026-05-24T22:43:15.000Z</time></trkpt>
        <trkpt lat="28.7290963" lon="105.4167775"><ele>292.79</ele><time>2026-05-24T22:43:58.000Z</time></trkpt>
        <trkpt lat="28.7291706" lon="105.4167076"><ele>288.55</ele><time>2026-05-24T22:44:06.000Z</time></trkpt>
        <trkpt lat="28.7292333" lon="105.4166384"><ele>286.56</ele><time>2026-05-24T22:44:16.000Z</time></trkpt>
        <trkpt lat="28.7292848" lon="105.4165499"><ele>285.19</ele><time>2026-05-24T22:44:38.000Z</time></trkpt>
        <trkpt lat="28.7293116" lon="105.41645"><ele>282.07</ele><time>2026-05-24T22:44:50.000Z</time></trkpt>
        <trkpt lat="28.7293034" lon="105.4163343"><ele>279.91</ele><time>2026-05-24T22:45:02.000Z</time></trkpt>
        <trkpt lat="28.7293566" lon="105.416261"><ele>277.91</ele><time>2026-05-24T22:45:12.000Z</time></trkpt>
        <trkpt lat="28.7294207" lon="105.4161885"><ele>275.49</ele><time>2026-05-24T22:45:24.000Z</time></trkpt>
        <trkpt lat="28.7294978" lon="105.4161109"><ele>273.43</ele><time>2026-05-24T22:45:38.000Z</time></trkpt>
        <trkpt lat="28.7295796" lon="105.4160395"><ele>271.62</ele><time>2026-05-24T22:45:54.000Z</time></trkpt>
        <trkpt lat="28.7295528" lon="105.4159466"><ele>268.65</ele><time>2026-05-24T22:46:10.000Z</time></trkpt>
        <trkpt lat="28.7294742" lon="105.4158857"><ele>267.91</ele><time>2026-05-24T22:46:20.000Z</time></trkpt>
        <trkpt lat="28.7293999" lon="105.4158096"><ele>267.43</ele><time>2026-05-24T22:46:32.000Z</time></trkpt>
        <trkpt lat="28.7293439" lon="105.4157177"><ele>265.65</ele><time>2026-05-24T22:46:42.000Z</time></trkpt>
        <trkpt lat="28.7292727" lon="105.4156317"><ele>263.2</ele><time>2026-05-24T22:46:54.000Z</time></trkpt>
        <trkpt lat="28.7291971" lon="105.415542"><ele>258.61</ele><time>2026-05-24T22:47:04.000Z</time></trkpt>
        <trkpt lat="28.7291238" lon="105.4154601"><ele>253.54</ele><time>2026-05-24T22:47:12.000Z</time></trkpt>
        <trkpt lat="28.7290602" lon="105.41538"><ele>250.28</ele><time>2026-05-24T22:47:20.000Z</time></trkpt>
        <trkpt lat="28.7290074" lon="105.4152908"><ele>247.02</ele><time>2026-05-24T22:47:32.000Z</time></trkpt>
        <trkpt lat="28.7289396" lon="105.4152081"><ele>244.53</ele><time>2026-05-24T22:47:42.000Z</time></trkpt>
        <trkpt lat="28.7289318" lon="105.4151074"><ele>242.43</ele><time>2026-05-24T22:47:54.000Z</time></trkpt>
        <trkpt lat="28.7289813" lon="105.4150104"><ele>240.76</ele><time>2026-05-24T22:48:28.000Z</time></trkpt>
        <trkpt lat="28.7290548" lon="105.4149283"><ele>238.92</ele><time>2026-05-24T22:48:36.000Z</time></trkpt>
        <trkpt lat="28.7291389" lon="105.4148642"><ele>238.18</ele><time>2026-05-24T22:48:44.000Z</time></trkpt>
        <trkpt lat="28.7292122" lon="105.4147938"><ele>236.8</ele><time>2026-05-24T22:48:52.000Z</time></trkpt>
        <trkpt lat="28.7292986" lon="105.4147389"><ele>235.77</ele><time>2026-05-24T22:49:00.000Z</time></trkpt>
        <trkpt lat="28.7294006" lon="105.4146885"><ele>233.85</ele><time>2026-05-24T22:49:10.000Z</time></trkpt>
        <trkpt lat="28.7294826" lon="105.414612"><ele>232.12</ele><time>2026-05-24T22:49:18.000Z</time></trkpt>
        <trkpt lat="28.7295743" lon="105.4145598"><ele>231.34</ele><time>2026-05-24T22:49:26.000Z</time></trkpt>
        <trkpt lat="28.7296668" lon="105.4144939"><ele>231.61</ele><time>2026-05-24T22:49:36.000Z</time></trkpt>
        <trkpt lat="28.7297644" lon="105.4144403"><ele>231.96</ele><time>2026-05-24T22:49:46.000Z</time></trkpt>
        <trkpt lat="28.7298586" lon="105.4144066"><ele>233.04</ele><time>2026-05-24T22:49:54.000Z</time></trkpt>
        <trkpt lat="28.7299581" lon="105.4143837"><ele>234.99</ele><time>2026-05-24T22:50:03.000Z</time></trkpt>
        <trkpt lat="28.7300599" lon="105.4143771"><ele>237.01</ele><time>2026-05-24T22:50:13.000Z</time></trkpt>
        <trkpt lat="28.7301639" lon="105.414399"><ele>237.99</ele><time>2026-05-24T22:50:23.000Z</time></trkpt>
        <trkpt lat="28.7302578" lon="105.4144641"><ele>238.71</ele><time>2026-05-24T22:50:33.000Z</time></trkpt>
        <trkpt lat="28.7303359" lon="105.4145435"><ele>238.55</ele><time>2026-05-24T22:50:41.000Z</time></trkpt>
        <trkpt lat="28.7304121" lon="105.4146173"><ele>238.86</ele><time>2026-05-24T22:50:49.000Z</time></trkpt>
        <trkpt lat="28.7304872" lon="105.4146909"><ele>238.37</ele><time>2026-05-24T22:50:57.000Z</time></trkpt>
        <trkpt lat="28.7304587" lon="105.4146789"><ele>236.52</ele><time>2026-05-24T22:51:21.000Z</time></trkpt>
        <trkpt lat="28.730518" lon="105.4146837"><ele>235.62</ele><time>2026-05-24T22:51:33.000Z</time></trkpt>
        <trkpt lat="28.730604" lon="105.4147174"><ele>234.22</ele><time>2026-05-24T22:51:41.000Z</time></trkpt>
        <trkpt lat="28.7306965" lon="105.4147548"><ele>234.9</ele><time>2026-05-24T22:51:49.000Z</time></trkpt>
        <trkpt lat="28.7307958" lon="105.4147764"><ele>235.28</ele><time>2026-05-24T22:51:59.000Z</time></trkpt>
        <trkpt lat="28.7308995" lon="105.4148073"><ele>235.3</ele><time>2026-05-24T22:52:11.000Z</time></trkpt>
        <trkpt lat="28.7309941" lon="105.4148537"><ele>234.77</ele><time>2026-05-24T22:52:22.000Z</time></trkpt>
        <trkpt lat="28.7310927" lon="105.4148989"><ele>232.71</ele><time>2026-05-24T22:52:30.000Z</time></trkpt>
        <trkpt lat="28.7311898" lon="105.4149415"><ele>231.93</ele><time>2026-05-24T22:52:38.000Z</time></trkpt>
        <trkpt lat="28.7312786" lon="105.4149914"><ele>231.82</ele><time>2026-05-24T22:52:46.000Z</time></trkpt>
        <trkpt lat="28.7313741" lon="105.4150491"><ele>230.98</ele><time>2026-05-24T22:52:54.000Z</time></trkpt>
        <trkpt lat="28.7314634" lon="105.4150982"><ele>229.31</ele><time>2026-05-24T22:53:02.000Z</time></trkpt>
        <trkpt lat="28.731553" lon="105.4150998"><ele>228.08</ele><time>2026-05-24T22:53:10.000Z</time></trkpt>
        <trkpt lat="28.731628" lon="105.4150567"><ele>227.21</ele><time>2026-05-24T22:53:22.000Z</time></trkpt>
        <trkpt lat="28.731716" lon="105.4150416"><ele>226.02</ele><time>2026-05-24T22:54:42.000Z</time></trkpt>
        <trkpt lat="28.7318107" lon="105.4150384"><ele>225.5</ele><time>2026-05-24T22:55:12.000Z</time></trkpt>
        <trkpt lat="28.7319028" lon="105.415023"><ele>225.04</ele><time>2026-05-24T22:55:27.000Z</time></trkpt>
        <trkpt lat="28.7319889" lon="105.4149706"><ele>224.46</ele><time>2026-05-24T22:55:37.000Z</time></trkpt>
        <trkpt lat="28.7320719" lon="105.414894"><ele>224.28</ele><time>2026-05-24T22:55:47.000Z</time></trkpt>
        <trkpt lat="28.7321448" lon="105.4148074"><ele>224.25</ele><time>2026-05-24T22:56:01.000Z</time></trkpt>
        <trkpt lat="28.732211" lon="105.4147263"><ele>224.35</ele><time>2026-05-24T22:56:11.000Z</time></trkpt>
        <trkpt lat="28.7322914" lon="105.414665"><ele>224.06</ele><time>2026-05-24T22:56:21.000Z</time></trkpt>
        <trkpt lat="28.7323759" lon="105.4146215"><ele>223.48</ele><time>2026-05-24T22:56:29.000Z</time></trkpt>
        <trkpt lat="28.7324748" lon="105.4145918"><ele>223.49</ele><time>2026-05-24T22:56:39.000Z</time></trkpt>
        <trkpt lat="28.732576" lon="105.4145732"><ele>223.66</ele><time>2026-05-24T22:56:49.000Z</time></trkpt>
        <trkpt lat="28.7326722" lon="105.4145901"><ele>224.15</ele><time>2026-05-24T22:56:57.000Z</time></trkpt>
        <trkpt lat="28.7327665" lon="105.4146287"><ele>225.31</ele><time>2026-05-24T22:57:05.000Z</time></trkpt>
        <trkpt lat="28.7328628" lon="105.4146596"><ele>226.59</ele><time>2026-05-24T22:57:13.000Z</time></trkpt>
        <trkpt lat="28.7329595" lon="105.4146508"><ele>227.23</ele><time>2026-05-24T22:57:21.000Z</time></trkpt>
        <trkpt lat="28.7330487" lon="105.4146137"><ele>226.96</ele><time>2026-05-24T22:57:29.000Z</time></trkpt>
        <trkpt lat="28.7331412" lon="105.4145818"><ele>225.74</ele><time>2026-05-24T22:57:37.000Z</time></trkpt>
        <trkpt lat="28.7332364" lon="105.4146066"><ele>224.51</ele><time>2026-05-24T22:57:45.000Z</time></trkpt>
        <trkpt lat="28.7333335" lon="105.4146707"><ele>223.22</ele><time>2026-05-24T22:57:53.000Z</time></trkpt>
        <trkpt lat="28.7334361" lon="105.4147395"><ele>221.8</ele><time>2026-05-24T22:58:01.000Z</time></trkpt>
        <trkpt lat="28.733536" lon="105.4147672"><ele>220.55</ele><time>2026-05-24T22:58:09.000Z</time></trkpt>
        <trkpt lat="28.7336446" lon="105.4147622"><ele>219.45</ele><time>2026-05-24T22:58:17.000Z</time></trkpt>
        <trkpt lat="28.7337419" lon="105.4147718"><ele>218.21</ele><time>2026-05-24T22:58:25.000Z</time></trkpt>
        <trkpt lat="28.7338284" lon="105.4148209"><ele>217.3</ele><time>2026-05-24T22:58:35.000Z</time></trkpt>
        <trkpt lat="28.7338995" lon="105.4149121"><ele>216.76</ele><time>2026-05-24T22:58:45.000Z</time></trkpt>
        <trkpt lat="28.7339554" lon="105.4150155"><ele>215.84</ele><time>2026-05-24T22:58:55.000Z</time></trkpt>
        <trkpt lat="28.7340011" lon="105.4151312"><ele>215.09</ele><time>2026-05-24T22:59:05.000Z</time></trkpt>
        <trkpt lat="28.7340528" lon="105.4152452"><ele>214.53</ele><time>2026-05-24T22:59:15.000Z</time></trkpt>
        <trkpt lat="28.7340768" lon="105.4153639"><ele>214.16</ele><time>2026-05-24T22:59:27.000Z</time></trkpt>
        <trkpt lat="28.7340825" lon="105.4154806"><ele>213.61</ele><time>2026-05-24T22:59:37.000Z</time></trkpt>
        <trkpt lat="28.7340847" lon="105.4155987"><ele>213.55</ele><time>2026-05-24T22:59:47.000Z</time></trkpt>
        <trkpt lat="28.734098" lon="105.4157143"><ele>213.25</ele><time>2026-05-24T22:59:57.000Z</time></trkpt>
        <trkpt lat="28.7341305" lon="105.4158226"><ele>212.85</ele><time>2026-05-24T23:00:07.000Z</time></trkpt>
        <trkpt lat="28.7341821" lon="105.4159291"><ele>212.91</ele><time>2026-05-24T23:00:17.000Z</time></trkpt>
        <trkpt lat="28.7342565" lon="105.4160209"><ele>212.91</ele><time>2026-05-24T23:00:27.000Z</time></trkpt>
        <trkpt lat="28.7343406" lon="105.416098"><ele>212.93</ele><time>2026-05-24T23:00:37.000Z</time></trkpt>
        <trkpt lat="28.7344359" lon="105.4161514"><ele>213.26</ele><time>2026-05-24T23:00:47.000Z</time></trkpt>
        <trkpt lat="28.734532" lon="105.4162015"><ele>213.14</ele><time>2026-05-24T23:00:57.000Z</time></trkpt>
        <trkpt lat="28.7345811" lon="105.4162835"><ele>213.71</ele><time>2026-05-24T23:01:05.000Z</time></trkpt>
        <trkpt lat="28.7346157" lon="105.4163802"><ele>214.44</ele><time>2026-05-24T23:01:13.000Z</time></trkpt>
        <trkpt lat="28.7346387" lon="105.416483"><ele>215.42</ele><time>2026-05-24T23:01:21.000Z</time></trkpt>
        <trkpt lat="28.7346599" lon="105.4165988"><ele>217.07</ele><time>2026-05-24T23:01:31.000Z</time></trkpt>
        <trkpt lat="28.7347123" lon="105.4167029"><ele>218.04</ele><time>2026-05-24T23:01:41.000Z</time></trkpt>
        <trkpt lat="28.7347564" lon="105.4168003"><ele>218.77</ele><time>2026-05-24T23:01:49.000Z</time></trkpt>
        <trkpt lat="28.7347908" lon="105.416909"><ele>218.86</ele><time>2026-05-24T23:01:59.000Z</time></trkpt>
        <trkpt lat="28.7348088" lon="105.4170268"><ele>218.64</ele><time>2026-05-24T23:02:11.000Z</time></trkpt>
        <trkpt lat="28.7348529" lon="105.4171432"><ele>219.86</ele><time>2026-05-24T23:02:24.000Z</time></trkpt>
        <trkpt lat="28.7348922" lon="105.4172582"><ele>221.09</ele><time>2026-05-24T23:02:36.000Z</time></trkpt>
        <trkpt lat="28.7348892" lon="105.4173645"><ele>222.52</ele><time>2026-05-24T23:02:46.000Z</time></trkpt>
        <trkpt lat="28.7348655" lon="105.417474"><ele>223.94</ele><time>2026-05-24T23:03:00.000Z</time></trkpt>
        <trkpt lat="28.7348437" lon="105.4175873"><ele>225.59</ele><time>2026-05-24T23:03:12.000Z</time></trkpt>
        <trkpt lat="28.7348436" lon="105.4176958"><ele>227.32</ele><time>2026-05-24T23:03:24.000Z</time></trkpt>
        <trkpt lat="28.7348422" lon="105.4177997"><ele>228.91</ele><time>2026-05-24T23:03:35.000Z</time></trkpt>
        <trkpt lat="28.7348513" lon="105.4179024"><ele>230.5</ele><time>2026-05-24T23:03:45.000Z</time></trkpt>
        <trkpt lat="28.7348831" lon="105.4180149"><ele>231.76</ele><time>2026-05-24T23:03:57.000Z</time></trkpt>
        <trkpt lat="28.7349173" lon="105.4181232"><ele>232.9</ele><time>2026-05-24T23:04:07.000Z</time></trkpt>
        <trkpt lat="28.7349286" lon="105.4182297"><ele>233.23</ele><time>2026-05-24T23:04:15.000Z</time></trkpt>
        <trkpt lat="28.7349476" lon="105.4183495"><ele>233.67</ele><time>2026-05-24T23:04:25.000Z</time></trkpt>
        <trkpt lat="28.7349739" lon="105.4184703"><ele>233.87</ele><time>2026-05-24T23:04:35.000Z</time></trkpt>
        <trkpt lat="28.7350296" lon="105.4185776"><ele>234.76</ele><time>2026-05-24T23:04:45.000Z</time></trkpt>
        <trkpt lat="28.735086" lon="105.4186848"><ele>236.32</ele><time>2026-05-24T23:04:55.000Z</time></trkpt>
        <trkpt lat="28.7351349" lon="105.4187992"><ele>237.4</ele><time>2026-05-24T23:05:05.000Z</time></trkpt>
        <trkpt lat="28.7351708" lon="105.4189015"><ele>238.37</ele><time>2026-05-24T23:05:13.000Z</time></trkpt>
        <trkpt lat="28.7351937" lon="105.4190014"><ele>238.65</ele><time>2026-05-24T23:05:21.000Z</time></trkpt>
        <trkpt lat="28.7352061" lon="105.4191179"><ele>239.11</ele><time>2026-05-24T23:05:31.000Z</time></trkpt>
        <trkpt lat="28.7352339" lon="105.4192244"><ele>239.39</ele><time>2026-05-24T23:05:39.000Z</time></trkpt>
        <trkpt lat="28.7352736" lon="105.4193387"><ele>239.87</ele><time>2026-05-24T23:05:48.000Z</time></trkpt>
        <trkpt lat="28.7353213" lon="105.419436"><ele>240.19</ele><time>2026-05-24T23:05:56.000Z</time></trkpt>
        <trkpt lat="28.7353896" lon="105.4195175"><ele>240.27</ele><time>2026-05-24T23:06:04.000Z</time></trkpt>
        <trkpt lat="28.7354614" lon="105.4195915"><ele>240.46</ele><time>2026-05-24T23:06:12.000Z</time></trkpt>
        <trkpt lat="28.7355499" lon="105.4196568"><ele>240.9</ele><time>2026-05-24T23:06:20.000Z</time></trkpt>
        <trkpt lat="28.735637" lon="105.4197079"><ele>240.72</ele><time>2026-05-24T23:06:27.000Z</time></trkpt>
        <trkpt lat="28.7357292" lon="105.4197526"><ele>240.85</ele><time>2026-05-24T23:06:35.000Z</time></trkpt>
        <trkpt lat="28.7358175" lon="105.419802"><ele>241.63</ele><time>2026-05-24T23:06:43.000Z</time></trkpt>
        <trkpt lat="28.7358888" lon="105.4198729"><ele>242.3</ele><time>2026-05-24T23:06:51.000Z</time></trkpt>
        <trkpt lat="28.7359552" lon="105.4199506"><ele>242.47</ele><time>2026-05-24T23:06:59.000Z</time></trkpt>
        <trkpt lat="28.7360013" lon="105.4200492"><ele>243.01</ele><time>2026-05-24T23:07:09.000Z</time></trkpt>
        <trkpt lat="28.7360093" lon="105.4201575"><ele>243.45</ele><time>2026-05-24T23:07:17.000Z</time></trkpt>
        <trkpt lat="28.7359955" lon="105.4202638"><ele>243.71</ele><time>2026-05-24T23:07:25.000Z</time></trkpt>
        <trkpt lat="28.7359745" lon="105.4203803"><ele>244.75</ele><time>2026-05-24T23:07:35.000Z</time></trkpt>
        <trkpt lat="28.7359699" lon="105.42049"><ele>246.02</ele><time>2026-05-24T23:07:43.000Z</time></trkpt>
        <trkpt lat="28.7359874" lon="105.420595"><ele>246.56</ele><time>2026-05-24T23:07:51.000Z</time></trkpt>
        <trkpt lat="28.7360291" lon="105.4206997"><ele>247.1</ele><time>2026-05-24T23:07:59.000Z</time></trkpt>
        <trkpt lat="28.7360841" lon="105.4207922"><ele>248.1</ele><time>2026-05-24T23:08:11.000Z</time></trkpt>
        <trkpt lat="28.7361458" lon="105.420872"><ele>249.22</ele><time>2026-05-24T23:08:21.000Z</time></trkpt>
        <trkpt lat="28.7362008" lon="105.4209686"><ele>250.88</ele><time>2026-05-24T23:08:33.000Z</time></trkpt>
        <trkpt lat="28.7362519" lon="105.4210628"><ele>252.09</ele><time>2026-05-24T23:08:43.000Z</time></trkpt>
        <trkpt lat="28.7362934" lon="105.421156"><ele>253.33</ele><time>2026-05-24T23:08:51.000Z</time></trkpt>
        <trkpt lat="28.7363473" lon="105.4212511"><ele>254</ele><time>2026-05-24T23:09:01.000Z</time></trkpt>
        <trkpt lat="28.7364045" lon="105.4213398"><ele>254.35</ele><time>2026-05-24T23:09:11.000Z</time></trkpt>
        <trkpt lat="28.7364634" lon="105.4214348"><ele>254.89</ele><time>2026-05-24T23:09:21.000Z</time></trkpt>
        <trkpt lat="28.7365352" lon="105.4215154"><ele>256.14</ele><time>2026-05-24T23:09:33.000Z</time></trkpt>
        <trkpt lat="28.7366066" lon="105.4215875"><ele>257.37</ele><time>2026-05-24T23:09:47.000Z</time></trkpt>
        <trkpt lat="28.7366725" lon="105.4216626"><ele>258.49</ele><time>2026-05-24T23:10:01.000Z</time></trkpt>
        <trkpt lat="28.7367424" lon="105.4217363"><ele>259.74</ele><time>2026-05-24T23:10:17.000Z</time></trkpt>
        <trkpt lat="28.7368174" lon="105.4217981"><ele>261.55</ele><time>2026-05-24T23:10:29.000Z</time></trkpt>
        <trkpt lat="28.736892" lon="105.4218609"><ele>263.26</ele><time>2026-05-24T23:10:41.000Z</time></trkpt>
        <trkpt lat="28.7369667" lon="105.421923"><ele>264.78</ele><time>2026-05-24T23:10:51.000Z</time></trkpt>
        <trkpt lat="28.7370439" lon="105.4219953"><ele>265.96</ele><time>2026-05-24T23:11:01.000Z</time></trkpt>
        <trkpt lat="28.7371212" lon="105.4220747"><ele>266.63</ele><time>2026-05-24T23:11:11.000Z</time></trkpt>
        <trkpt lat="28.7371977" lon="105.4221584"><ele>267.1</ele><time>2026-05-24T23:11:19.000Z</time></trkpt>
        <trkpt lat="28.73727" lon="105.4222375"><ele>267.38</ele><time>2026-05-24T23:11:27.000Z</time></trkpt>
        <trkpt lat="28.7373569" lon="105.4222923"><ele>267.78</ele><time>2026-05-24T23:11:35.000Z</time></trkpt>
        <trkpt lat="28.7374506" lon="105.4223102"><ele>267.91</ele><time>2026-05-24T23:11:43.000Z</time></trkpt>
        <trkpt lat="28.7375507" lon="105.4222713"><ele>268.12</ele><time>2026-05-24T23:11:53.000Z</time></trkpt>
        <trkpt lat="28.7376584" lon="105.4222671"><ele>268.48</ele><time>2026-05-24T23:12:03.000Z</time></trkpt>
        <trkpt lat="28.7377684" lon="105.4222833"><ele>269.15</ele><time>2026-05-24T23:12:13.000Z</time></trkpt>
        <trkpt lat="28.7378751" lon="105.4222888"><ele>270.22</ele><time>2026-05-24T23:12:21.000Z</time></trkpt>
        <trkpt lat="28.7379847" lon="105.4223011"><ele>270.88</ele><time>2026-05-24T23:12:31.000Z</time></trkpt>
        <trkpt lat="28.7380731" lon="105.422351"><ele>271.39</ele><time>2026-05-24T23:12:39.000Z</time></trkpt>
        <trkpt lat="28.7381478" lon="105.4224166"><ele>271.6</ele><time>2026-05-24T23:12:47.000Z</time></trkpt>
        <trkpt lat="28.7382227" lon="105.4224795"><ele>271.46</ele><time>2026-05-24T23:12:55.000Z</time></trkpt>
        <trkpt lat="28.7383059" lon="105.4225467"><ele>271.45</ele><time>2026-05-24T23:13:03.000Z</time></trkpt>
        <trkpt lat="28.7383974" lon="105.4226167"><ele>271.69</ele><time>2026-05-24T23:13:13.000Z</time></trkpt>
        <trkpt lat="28.7384815" lon="105.4226705"><ele>271.07</ele><time>2026-05-24T23:13:21.000Z</time></trkpt>
        <trkpt lat="28.7385668" lon="105.4227252"><ele>271.63</ele><time>2026-05-24T23:13:29.000Z</time></trkpt>
        <trkpt lat="28.7386635" lon="105.4227806"><ele>271.98</ele><time>2026-05-24T23:13:39.000Z</time></trkpt>
        <trkpt lat="28.7387551" lon="105.422837"><ele>272.88</ele><time>2026-05-24T23:13:49.000Z</time></trkpt>
        <trkpt lat="28.7388144" lon="105.4229205"><ele>273.54</ele><time>2026-05-24T23:13:57.000Z</time></trkpt>
        <trkpt lat="28.7388658" lon="105.4230237"><ele>274.64</ele><time>2026-05-24T23:14:07.000Z</time></trkpt>
        <trkpt lat="28.7389168" lon="105.4231224"><ele>275.37</ele><time>2026-05-24T23:14:15.000Z</time></trkpt>
        <trkpt lat="28.7389741" lon="105.4232287"><ele>276.33</ele><time>2026-05-24T23:14:23.000Z</time></trkpt>
        <trkpt lat="28.7390369" lon="105.4233136"><ele>277.53</ele><time>2026-05-24T23:14:32.000Z</time></trkpt>
        <trkpt lat="28.7390985" lon="105.4234053"><ele>279.2</ele><time>2026-05-24T23:14:40.000Z</time></trkpt>
        <trkpt lat="28.7391805" lon="105.4234536"><ele>280.26</ele><time>2026-05-24T23:14:48.000Z</time></trkpt>
        <trkpt lat="28.739274" lon="105.4235"><ele>280.51</ele><time>2026-05-24T23:14:56.000Z</time></trkpt>
        <trkpt lat="28.7393519" lon="105.4235645"><ele>280.92</ele><time>2026-05-24T23:15:04.000Z</time></trkpt>
        <trkpt lat="28.7394111" lon="105.4236546"><ele>281.56</ele><time>2026-05-24T23:15:12.000Z</time></trkpt>
        <trkpt lat="28.7394749" lon="105.4237432"><ele>281.59</ele><time>2026-05-24T23:15:20.000Z</time></trkpt>
        <trkpt lat="28.7395468" lon="105.4238201"><ele>281.63</ele><time>2026-05-24T23:15:28.000Z</time></trkpt>
        <trkpt lat="28.7396209" lon="105.4239041"><ele>281.73</ele><time>2026-05-24T23:15:36.000Z</time></trkpt>
        <trkpt lat="28.7397035" lon="105.4239627"><ele>282.06</ele><time>2026-05-24T23:15:42.000Z</time></trkpt>
        <trkpt lat="28.7398048" lon="105.4239814"><ele>282.21</ele><time>2026-05-24T23:15:50.000Z</time></trkpt>
        <trkpt lat="28.7399005" lon="105.4239673"><ele>282.43</ele><time>2026-05-24T23:15:58.000Z</time></trkpt>
        <trkpt lat="28.7400074" lon="105.4239625"><ele>281.96</ele><time>2026-05-24T23:16:06.000Z</time></trkpt>
        <trkpt lat="28.740104" lon="105.4239505"><ele>281.48</ele><time>2026-05-24T23:16:12.000Z</time></trkpt>
        <trkpt lat="28.7402053" lon="105.4239293"><ele>280.16</ele><time>2026-05-24T23:16:20.000Z</time></trkpt>
        <trkpt lat="28.740305" lon="105.4238777"><ele>277.74</ele><time>2026-05-24T23:16:28.000Z</time></trkpt>
        <trkpt lat="28.7403994" lon="105.4238224"><ele>275.85</ele><time>2026-05-24T23:16:36.000Z</time></trkpt>
        <trkpt lat="28.7405065" lon="105.4237776"><ele>274.4</ele><time>2026-05-24T23:16:44.000Z</time></trkpt>
        <trkpt lat="28.7405999" lon="105.4237457"><ele>272.49</ele><time>2026-05-24T23:16:50.000Z</time></trkpt>
        <trkpt lat="28.7407058" lon="105.4237416"><ele>270.39</ele><time>2026-05-24T23:16:58.000Z</time></trkpt>
        <trkpt lat="28.7407909" lon="105.4238122"><ele>268.01</ele><time>2026-05-24T23:17:06.000Z</time></trkpt>
        <trkpt lat="28.740876" lon="105.4239095"><ele>265.86</ele><time>2026-05-24T23:17:14.000Z</time></trkpt>
        <trkpt lat="28.7409678" lon="105.4239662"><ele>263.77</ele><time>2026-05-24T23:17:22.000Z</time></trkpt>
        <trkpt lat="28.7410694" lon="105.4240013"><ele>262.31</ele><time>2026-05-24T23:17:30.000Z</time></trkpt>
        <trkpt lat="28.7411709" lon="105.4240151"><ele>260.94</ele><time>2026-05-24T23:17:38.000Z</time></trkpt>
        <trkpt lat="28.7412761" lon="105.4240052"><ele>260.1</ele><time>2026-05-24T23:17:46.000Z</time></trkpt>
        <trkpt lat="28.7413804" lon="105.4239774"><ele>260.13</ele><time>2026-05-24T23:17:54.000Z</time></trkpt>
        <trkpt lat="28.7414215" lon="105.4240528"><ele>260.92</ele><time>2026-05-24T23:18:04.000Z</time></trkpt>
        <trkpt lat="28.7414266" lon="105.4241768"><ele>262.34</ele><time>2026-05-24T23:18:14.000Z</time></trkpt>
        <trkpt lat="28.7414328" lon="105.424299"><ele>264.43</ele><time>2026-05-24T23:18:24.000Z</time></trkpt>
        <trkpt lat="28.7414536" lon="105.4244233"><ele>265.28</ele><time>2026-05-24T23:18:34.000Z</time></trkpt>
        <trkpt lat="28.7414808" lon="105.4245452"><ele>266.12</ele><time>2026-05-24T23:18:42.000Z</time></trkpt>
        <trkpt lat="28.7415002" lon="105.424665"><ele>266.46</ele><time>2026-05-24T23:18:52.000Z</time></trkpt>
        <trkpt lat="28.7415154" lon="105.4247798"><ele>266.31</ele><time>2026-05-24T23:19:02.000Z</time></trkpt>
        <trkpt lat="28.7415222" lon="105.4248986"><ele>266.17</ele><time>2026-05-24T23:19:14.000Z</time></trkpt>
        <trkpt lat="28.7415298" lon="105.4250136"><ele>265.79</ele><time>2026-05-24T23:19:22.000Z</time></trkpt>
        <trkpt lat="28.7415426" lon="105.4251197"><ele>265.43</ele><time>2026-05-24T23:19:30.000Z</time></trkpt>
        <trkpt lat="28.7415518" lon="105.4252311"><ele>264.75</ele><time>2026-05-24T23:19:38.000Z</time></trkpt>
        <trkpt lat="28.7415639" lon="105.4253467"><ele>263.21</ele><time>2026-05-24T23:19:46.000Z</time></trkpt>
        <trkpt lat="28.7415233" lon="105.4254512"><ele>262.08</ele><time>2026-05-24T23:19:54.000Z</time></trkpt>
        <trkpt lat="28.7414777" lon="105.4255492"><ele>261.35</ele><time>2026-05-24T23:20:02.000Z</time></trkpt>
        <trkpt lat="28.7414732" lon="105.4256681"><ele>260.69</ele><time>2026-05-24T23:20:10.000Z</time></trkpt>
        <trkpt lat="28.7415093" lon="105.4257791"><ele>261.55</ele><time>2026-05-24T23:20:18.000Z</time></trkpt>
        <trkpt lat="28.7415262" lon="105.4258964"><ele>262.16</ele><time>2026-05-24T23:20:26.000Z</time></trkpt>
        <trkpt lat="28.7415268" lon="105.4260104"><ele>263.33</ele><time>2026-05-24T23:20:34.000Z</time></trkpt>
        <trkpt lat="28.7414964" lon="105.4261171"><ele>264.07</ele><time>2026-05-24T23:20:42.000Z</time></trkpt>
        <trkpt lat="28.7414599" lon="105.426224"><ele>264.5</ele><time>2026-05-24T23:20:50.000Z</time></trkpt>
        <trkpt lat="28.7414131" lon="105.4263261"><ele>264.2</ele><time>2026-05-24T23:20:58.000Z</time></trkpt>
        <trkpt lat="28.7413695" lon="105.4264279"><ele>263.35</ele><time>2026-05-24T23:21:06.000Z</time></trkpt>
        <trkpt lat="28.7413317" lon="105.4265301"><ele>261.85</ele><time>2026-05-24T23:21:12.000Z</time></trkpt>
        <trkpt lat="28.7413565" lon="105.42663"><ele>261.42</ele><time>2026-05-24T23:21:18.000Z</time></trkpt>
        <trkpt lat="28.7413858" lon="105.426738"><ele>260.31</ele><time>2026-05-24T23:21:26.000Z</time></trkpt>
        <trkpt lat="28.7414125" lon="105.4268552"><ele>259.36</ele><time>2026-05-24T23:21:34.000Z</time></trkpt>
        <trkpt lat="28.7414043" lon="105.4269607"><ele>256.93</ele><time>2026-05-24T23:21:42.000Z</time></trkpt>
        <trkpt lat="28.7413521" lon="105.427056"><ele>255.56</ele><time>2026-05-24T23:21:51.000Z</time></trkpt>
        <trkpt lat="28.7412688" lon="105.4271276"><ele>255.76</ele><time>2026-05-24T23:21:59.000Z</time></trkpt>
        <trkpt lat="28.7411824" lon="105.4271934"><ele>255.76</ele><time>2026-05-24T23:22:07.000Z</time></trkpt>
        <trkpt lat="28.7410821" lon="105.427244"><ele>255.54</ele><time>2026-05-24T23:22:15.000Z</time></trkpt>
        <trkpt lat="28.740974" lon="105.4272962"><ele>255.02</ele><time>2026-05-24T23:22:23.000Z</time></trkpt>
        <trkpt lat="28.740882" lon="105.4273377"><ele>254.51</ele><time>2026-05-24T23:22:29.000Z</time></trkpt>
        <trkpt lat="28.7408073" lon="105.4274112"><ele>254.02</ele><time>2026-05-24T23:22:37.000Z</time></trkpt>
        <trkpt lat="28.7407587" lon="105.4275155"><ele>253.03</ele><time>2026-05-24T23:22:45.000Z</time></trkpt>
        <trkpt lat="28.7407068" lon="105.4276081"><ele>251.75</ele><time>2026-05-24T23:22:53.000Z</time></trkpt>
        <trkpt lat="28.7406323" lon="105.4276766"><ele>250.33</ele><time>2026-05-24T23:23:01.000Z</time></trkpt>
        <trkpt lat="28.7405526" lon="105.427746"><ele>249.43</ele><time>2026-05-24T23:23:09.000Z</time></trkpt>
        <trkpt lat="28.7404712" lon="105.4278041"><ele>249.06</ele><time>2026-05-24T23:23:17.000Z</time></trkpt>
        <trkpt lat="28.7403727" lon="105.4278255"><ele>248.48</ele><time>2026-05-24T23:23:25.000Z</time></trkpt>
        <trkpt lat="28.7402693" lon="105.4278011"><ele>247.31</ele><time>2026-05-24T23:23:35.000Z</time></trkpt>
        <trkpt lat="28.7401622" lon="105.4277519"><ele>246.04</ele><time>2026-05-24T23:23:43.000Z</time></trkpt>
        <trkpt lat="28.74006" lon="105.4277082"><ele>243.11</ele><time>2026-05-24T23:23:51.000Z</time></trkpt>
        <trkpt lat="28.73997" lon="105.4276516"><ele>241.03</ele><time>2026-05-24T23:23:59.000Z</time></trkpt>
        <trkpt lat="28.739882" lon="105.4275986"><ele>239.98</ele><time>2026-05-24T23:24:07.000Z</time></trkpt>
        <trkpt lat="28.7397866" lon="105.4276023"><ele>239.79</ele><time>2026-05-24T23:24:15.000Z</time></trkpt>
        <trkpt lat="28.7397185" lon="105.427675"><ele>238.9</ele><time>2026-05-24T23:24:22.000Z</time></trkpt>
        <trkpt lat="28.7396525" lon="105.4277707"><ele>238.4</ele><time>2026-05-24T23:24:30.000Z</time></trkpt>
        <trkpt lat="28.7396485" lon="105.4278919"><ele>237.09</ele><time>2026-05-24T23:24:38.000Z</time></trkpt>
        <trkpt lat="28.7397099" lon="105.4280032"><ele>236.34</ele><time>2026-05-24T23:24:46.000Z</time></trkpt>
        <trkpt lat="28.7397628" lon="105.4281166"><ele>236.4</ele><time>2026-05-24T23:24:54.000Z</time></trkpt>
        <trkpt lat="28.7398125" lon="105.4282176"><ele>237.15</ele><time>2026-05-24T23:25:02.000Z</time></trkpt>
        <trkpt lat="28.739836" lon="105.4283424"><ele>236.91</ele><time>2026-05-24T23:25:10.000Z</time></trkpt>
        <trkpt lat="28.7398453" lon="105.4284596"><ele>237.69</ele><time>2026-05-24T23:25:18.000Z</time></trkpt>
        <trkpt lat="28.7398201" lon="105.428568"><ele>238.56</ele><time>2026-05-24T23:25:28.000Z</time></trkpt>
        <trkpt lat="28.7397421" lon="105.4286526"><ele>239</ele><time>2026-05-24T23:25:36.000Z</time></trkpt>
        <trkpt lat="28.7396481" lon="105.4287218"><ele>239.21</ele><time>2026-05-24T23:25:44.000Z</time></trkpt>
        <trkpt lat="28.7395536" lon="105.4287707"><ele>239.39</ele><time>2026-05-24T23:25:52.000Z</time></trkpt>
        <trkpt lat="28.7394732" lon="105.428852"><ele>239.37</ele><time>2026-05-24T23:26:00.000Z</time></trkpt>
        <trkpt lat="28.739399" lon="105.4289315"><ele>238.16</ele><time>2026-05-24T23:26:07.000Z</time></trkpt>
        <trkpt lat="28.7393404" lon="105.4290311"><ele>236.72</ele><time>2026-05-24T23:26:15.000Z</time></trkpt>
        <trkpt lat="28.7392838" lon="105.4291214"><ele>235.32</ele><time>2026-05-24T23:26:23.000Z</time></trkpt>
        <trkpt lat="28.7392375" lon="105.429228"><ele>233.18</ele><time>2026-05-24T23:26:31.000Z</time></trkpt>
        <trkpt lat="28.7392246" lon="105.4293398"><ele>231.69</ele><time>2026-05-24T23:26:37.000Z</time></trkpt>
        <trkpt lat="28.7391896" lon="105.4294368"><ele>231.07</ele><time>2026-05-24T23:26:44.000Z</time></trkpt>
        <trkpt lat="28.7391323" lon="105.4295218"><ele>230.4</ele><time>2026-05-24T23:26:52.000Z</time></trkpt>
        <trkpt lat="28.7390561" lon="105.4295997"><ele>230.16</ele><time>2026-05-24T23:27:00.000Z</time></trkpt>
        <trkpt lat="28.7389698" lon="105.4296858"><ele>230.05</ele><time>2026-05-24T23:27:08.000Z</time></trkpt>
        <trkpt lat="28.7388739" lon="105.4297643"><ele>229.6</ele><time>2026-05-24T23:27:16.000Z</time></trkpt>
        <trkpt lat="28.738791" lon="105.4298576"><ele>228.92</ele><time>2026-05-24T23:27:24.000Z</time></trkpt>
        <trkpt lat="28.7387377" lon="105.429967"><ele>228.78</ele><time>2026-05-24T23:27:34.000Z</time></trkpt>
        <trkpt lat="28.7387165" lon="105.4300919"><ele>229.25</ele><time>2026-05-24T23:27:44.000Z</time></trkpt>
        <trkpt lat="28.7387128" lon="105.430213"><ele>229.83</ele><time>2026-05-24T23:27:52.000Z</time></trkpt>
        <trkpt lat="28.7386982" lon="105.4303378"><ele>230.76</ele><time>2026-05-24T23:28:00.000Z</time></trkpt>
        <trkpt lat="28.7386585" lon="105.4304443"><ele>230.72</ele><time>2026-05-24T23:28:08.000Z</time></trkpt>
        <trkpt lat="28.7386113" lon="105.4305502"><ele>230.77</ele><time>2026-05-24T23:28:16.000Z</time></trkpt>
        <trkpt lat="28.7385371" lon="105.4306325"><ele>231.33</ele><time>2026-05-24T23:28:26.000Z</time></trkpt>
        <trkpt lat="28.7384429" lon="105.4306994"><ele>231.53</ele><time>2026-05-24T23:28:36.000Z</time></trkpt>
        <trkpt lat="28.7383402" lon="105.4307428"><ele>231.77</ele><time>2026-05-24T23:28:46.000Z</time></trkpt>
        <trkpt lat="28.7382318" lon="105.4307639"><ele>232.7</ele><time>2026-05-24T23:28:56.000Z</time></trkpt>
        <trkpt lat="28.7381249" lon="105.4307514"><ele>233.85</ele><time>2026-05-24T23:29:04.000Z</time></trkpt>
        <trkpt lat="28.738032" lon="105.4307073"><ele>235.55</ele><time>2026-05-24T23:29:12.000Z</time></trkpt>
        <trkpt lat="28.7379473" lon="105.4306449"><ele>236.45</ele><time>2026-05-24T23:29:20.000Z</time></trkpt>
        <trkpt lat="28.7379133" lon="105.4306077"><ele>237.18</ele><time>2026-05-24T23:29:26.000Z</time></trkpt>
        <trkpt lat="28.7378491" lon="105.4305395"><ele>237.66</ele><time>2026-05-24T23:31:08.000Z</time></trkpt>
        <trkpt lat="28.7377498" lon="105.4305385"><ele>238.14</ele><time>2026-05-24T23:31:16.000Z</time></trkpt>
        <trkpt lat="28.7376518" lon="105.4305717"><ele>237.66</ele><time>2026-05-24T23:31:24.000Z</time></trkpt>
        <trkpt lat="28.7375544" lon="105.4306073"><ele>237.96</ele><time>2026-05-24T23:31:32.000Z</time></trkpt>
        <trkpt lat="28.7374685" lon="105.430659"><ele>238.26</ele><time>2026-05-24T23:31:40.000Z</time></trkpt>
        <trkpt lat="28.7373963" lon="105.4307359"><ele>238.25</ele><time>2026-05-24T23:31:48.000Z</time></trkpt>
        <trkpt lat="28.7373241" lon="105.4308216"><ele>239.06</ele><time>2026-05-24T23:31:56.000Z</time></trkpt>
        <trkpt lat="28.73724" lon="105.4308377"><ele>240.16</ele><time>2026-05-24T23:32:02.000Z</time></trkpt>
        <trkpt lat="28.7371375" lon="105.4308331"><ele>241.36</ele><time>2026-05-24T23:32:10.000Z</time></trkpt>
        <trkpt lat="28.737041" lon="105.430824"><ele>242.52</ele><time>2026-05-24T23:32:18.000Z</time></trkpt>
        <trkpt lat="28.7369411" lon="105.4308321"><ele>244.13</ele><time>2026-05-24T23:32:28.000Z</time></trkpt>
        <trkpt lat="28.7368328" lon="105.4308367"><ele>245.31</ele><time>2026-05-24T23:32:38.000Z</time></trkpt>
        <trkpt lat="28.7367243" lon="105.4308297"><ele>246.66</ele><time>2026-05-24T23:32:48.000Z</time></trkpt>
        <trkpt lat="28.7366133" lon="105.4308168"><ele>247.48</ele><time>2026-05-24T23:32:58.000Z</time></trkpt>
        <trkpt lat="28.7365057" lon="105.4308142"><ele>247.89</ele><time>2026-05-24T23:33:06.000Z</time></trkpt>
        <trkpt lat="28.7364014" lon="105.4307843"><ele>248.22</ele><time>2026-05-24T23:33:16.000Z</time></trkpt>
        <trkpt lat="28.736315" lon="105.4307303"><ele>248.53</ele><time>2026-05-24T23:33:24.000Z</time></trkpt>
        <trkpt lat="28.736249" lon="105.4306531"><ele>248.44</ele><time>2026-05-24T23:33:32.000Z</time></trkpt>
        <trkpt lat="28.7361949" lon="105.4305556"><ele>247.86</ele><time>2026-05-24T23:33:40.000Z</time></trkpt>
        <trkpt lat="28.7361406" lon="105.430455"><ele>247.39</ele><time>2026-05-24T23:33:48.000Z</time></trkpt>
        <trkpt lat="28.7360799" lon="105.4303709"><ele>246.67</ele><time>2026-05-24T23:33:56.000Z</time></trkpt>
        <trkpt lat="28.7359997" lon="105.4302946"><ele>246.31</ele><time>2026-05-24T23:34:06.000Z</time></trkpt>
        <trkpt lat="28.7359055" lon="105.4302513"><ele>246.08</ele><time>2026-05-24T23:34:16.000Z</time></trkpt>
        <trkpt lat="28.7358967" lon="105.4301694"><ele>246.17</ele><time>2026-05-24T23:34:30.000Z</time></trkpt>
        <trkpt lat="28.7358898" lon="105.4300692"><ele>247.05</ele><time>2026-05-24T23:34:38.000Z</time></trkpt>
        <trkpt lat="28.7358928" lon="105.4299495"><ele>248.29</ele><time>2026-05-24T23:34:48.000Z</time></trkpt>
        <trkpt lat="28.7359174" lon="105.4298253"><ele>249.93</ele><time>2026-05-24T23:35:00.000Z</time></trkpt>
        <trkpt lat="28.7359663" lon="105.4297158"><ele>252.27</ele><time>2026-05-24T23:35:12.000Z</time></trkpt>
        <trkpt lat="28.7359827" lon="105.4296057"><ele>253.32</ele><time>2026-05-24T23:35:28.000Z</time></trkpt>
        <trkpt lat="28.7359969" lon="105.4294927"><ele>255.91</ele><time>2026-05-24T23:35:46.000Z</time></trkpt>
        <trkpt lat="28.7359858" lon="105.4293828"><ele>257.81</ele><time>2026-05-24T23:35:58.000Z</time></trkpt>
        <trkpt lat="28.7359422" lon="105.4292784"><ele>260.12</ele><time>2026-05-24T23:36:10.000Z</time></trkpt>
        <trkpt lat="28.7358892" lon="105.4291865"><ele>261.65</ele><time>2026-05-24T23:36:22.000Z</time></trkpt>
        <trkpt lat="28.7358251" lon="105.4290924"><ele>262.75</ele><time>2026-05-24T23:36:34.000Z</time></trkpt>
        <trkpt lat="28.735797" lon="105.4289742"><ele>264.38</ele><time>2026-05-24T23:36:46.000Z</time></trkpt>
        <trkpt lat="28.7358006" lon="105.4288499"><ele>266.8</ele><time>2026-05-24T23:36:56.000Z</time></trkpt>
        <trkpt lat="28.7358077" lon="105.428738"><ele>268.66</ele><time>2026-05-24T23:37:04.000Z</time></trkpt>
        <trkpt lat="28.735816" lon="105.4286174"><ele>269.6</ele><time>2026-05-24T23:37:12.000Z</time></trkpt>
        <trkpt lat="28.7358469" lon="105.4284959"><ele>270.54</ele><time>2026-05-24T23:37:22.000Z</time></trkpt>
        <trkpt lat="28.7358976" lon="105.4283865"><ele>271.22</ele><time>2026-05-24T23:37:30.000Z</time></trkpt>
        <trkpt lat="28.7359473" lon="105.428276"><ele>272.01</ele><time>2026-05-24T23:37:38.000Z</time></trkpt>
        <trkpt lat="28.7359809" lon="105.4281586"><ele>272.73</ele><time>2026-05-24T23:37:46.000Z</time></trkpt>
        <trkpt lat="28.7359939" lon="105.4280436"><ele>273.56</ele><time>2026-05-24T23:37:56.000Z</time></trkpt>
        <trkpt lat="28.7359911" lon="105.4279258"><ele>274.71</ele><time>2026-05-24T23:38:06.000Z</time></trkpt>
        <trkpt lat="28.7359846" lon="105.4278029"><ele>275.22</ele><time>2026-05-24T23:38:16.000Z</time></trkpt>
        <trkpt lat="28.7359541" lon="105.4276962"><ele>276.65</ele><time>2026-05-24T23:38:26.000Z</time></trkpt>
        <trkpt lat="28.7359188" lon="105.4275896"><ele>278.31</ele><time>2026-05-24T23:38:38.000Z</time></trkpt>
        <trkpt lat="28.7358678" lon="105.4274805"><ele>279.64</ele><time>2026-05-24T23:38:48.000Z</time></trkpt>
        <trkpt lat="28.7358228" lon="105.4273637"><ele>280.2</ele><time>2026-05-24T23:38:56.000Z</time></trkpt>
        <trkpt lat="28.7357494" lon="105.4272799"><ele>280.99</ele><time>2026-05-24T23:39:06.000Z</time></trkpt>
        <trkpt lat="28.7356556" lon="105.4272258"><ele>281.78</ele><time>2026-05-24T23:39:16.000Z</time></trkpt>
        <trkpt lat="28.7355587" lon="105.4271827"><ele>281.84</ele><time>2026-05-24T23:39:26.000Z</time></trkpt>
        <trkpt lat="28.7354792" lon="105.4271161"><ele>283.07</ele><time>2026-05-24T23:39:34.000Z</time></trkpt>
        <trkpt lat="28.7354191" lon="105.4270357"><ele>284.1</ele><time>2026-05-24T23:39:42.000Z</time></trkpt>
        <trkpt lat="28.7353622" lon="105.4269395"><ele>285.58</ele><time>2026-05-24T23:39:52.000Z</time></trkpt>
        <trkpt lat="28.735376" lon="105.4268349"><ele>285.86</ele><time>2026-05-24T23:40:00.000Z</time></trkpt>
        <trkpt lat="28.7354138" lon="105.4267226"><ele>285.98</ele><time>2026-05-24T23:40:08.000Z</time></trkpt>
        <trkpt lat="28.7354177" lon="105.4265999"><ele>286.06</ele><time>2026-05-24T23:40:16.000Z</time></trkpt>
        <trkpt lat="28.7353804" lon="105.4265029"><ele>285.76</ele><time>2026-05-24T23:40:24.000Z</time></trkpt>
        <trkpt lat="28.7353284" lon="105.4264066"><ele>287.53</ele><time>2026-05-24T23:40:34.000Z</time></trkpt>
        <trkpt lat="28.7353848" lon="105.4263759"><ele>290</ele><time>2026-05-24T23:40:50.000Z</time></trkpt>
        <trkpt lat="28.7354736" lon="105.4264286"><ele>292.28</ele><time>2026-05-24T23:40:58.000Z</time></trkpt>
        <trkpt lat="28.7355697" lon="105.4264888"><ele>294.48</ele><time>2026-05-24T23:41:08.000Z</time></trkpt>
        <trkpt lat="28.7356675" lon="105.4265669"><ele>295.8</ele><time>2026-05-24T23:41:18.000Z</time></trkpt>
        <trkpt lat="28.7357438" lon="105.4266668"><ele>297.63</ele><time>2026-05-24T23:41:28.000Z</time></trkpt>
        <trkpt lat="28.7358233" lon="105.4267459"><ele>299.69</ele><time>2026-05-24T23:41:38.000Z</time></trkpt>
        <trkpt lat="28.7359165" lon="105.4267827"><ele>301.72</ele><time>2026-05-24T23:41:48.000Z</time></trkpt>
        <trkpt lat="28.7360097" lon="105.4267933"><ele>303.4</ele><time>2026-05-24T23:41:56.000Z</time></trkpt>
        <trkpt lat="28.7361062" lon="105.4267714"><ele>304.82</ele><time>2026-05-24T23:42:06.000Z</time></trkpt>
        <trkpt lat="28.7361936" lon="105.4267884"><ele>306.61</ele><time>2026-05-24T23:42:15.000Z</time></trkpt>
        <trkpt lat="28.7362891" lon="105.4268257"><ele>308.08</ele><time>2026-05-24T23:42:25.000Z</time></trkpt>
        <trkpt lat="28.736377" lon="105.4268721"><ele>310.05</ele><time>2026-05-24T23:42:35.000Z</time></trkpt>
        <trkpt lat="28.736475" lon="105.4269051"><ele>312.84</ele><time>2026-05-24T23:42:47.000Z</time></trkpt>
        <trkpt lat="28.7365726" lon="105.4269191"><ele>315.42</ele><time>2026-05-24T23:42:57.000Z</time></trkpt>
        <trkpt lat="28.7366707" lon="105.4269012"><ele>317.42</ele><time>2026-05-24T23:43:07.000Z</time></trkpt>
        <trkpt lat="28.7367553" lon="105.4268845"><ele>319.23</ele><time>2026-05-24T23:43:17.000Z</time></trkpt>
        <trkpt lat="28.7366148" lon="105.4268826"><ele>320.16</ele><time>2026-05-24T23:45:03.000Z</time></trkpt>
        <trkpt lat="28.736547" lon="105.4268801"><ele>322.27</ele><time>2026-05-24T23:45:07.000Z</time></trkpt>
        <trkpt lat="28.7364496" lon="105.4268619"><ele>323.19</ele><time>2026-05-24T23:45:27.000Z</time></trkpt>
        <trkpt lat="28.7364123" lon="105.4268529"><ele>322.14</ele><time>2026-05-24T23:45:29.000Z</time></trkpt>
        <trkpt lat="28.7364123" lon="105.4268529"><ele>322.14</ele><time>2026-05-24T23:46:02.000Z</time></trkpt>
      </trkseg>
  </trk>
</gpx>